<?xml version="1.0" encoding="UTF-8" standalone="no" ?>
<gpx xmlns="http://www.topografix.com/GPX/1/1" xmlns:xsi="http://www.w3.org/2001/XMLSchema-instance" xsi:schemaLocation="http://www.topografix.com/GPX/1/1 http://www.topografix.com/GPX/1/1/gpx.xsd" version="1.1" creator="VisuGPX - https://www.visugpx.com">
  <metadata>
    <name>St Jean du Puy</name>
    <desc><![CDATA[Rando facile dans les vignobles de la St Victoire.]]></desc>
  </metadata>
  <trk>
    <name><![CDATA[St Jean du Puy_1]]></name>
    <trkseg>
      <trkpt lat="43.43669" lon="5.71039">
        <ele>341.899993</ele>
        <time>2015-04-29T07:16:25Z</time>
      </trkpt>
      <trkpt lat="43.43668" lon="5.71038">
        <ele>341.899993</ele>
        <time>2015-04-29T07:16:26Z</time>
      </trkpt>
      <trkpt lat="43.43639" lon="5.71014">
        <ele>340.7</ele>
        <time>2015-04-29T07:16:53Z</time>
      </trkpt>
      <trkpt lat="43.43622" lon="5.71006">
        <ele>342.2</ele>
        <time>2015-04-29T07:17:07Z</time>
      </trkpt>
      <trkpt lat="43.43609" lon="5.71022">
        <ele>339.8</ele>
        <time>2015-04-29T07:17:25Z</time>
      </trkpt>
      <trkpt lat="43.43598" lon="5.71041">
        <ele>340</ele>
        <time>2015-04-29T07:17:48Z</time>
      </trkpt>
      <trkpt lat="43.43598" lon="5.71041">
        <ele>339.8</ele>
        <time>2015-04-29T07:17:49Z</time>
      </trkpt>
      <trkpt lat="43.43583" lon="5.71082">
        <ele>342.8</ele>
        <time>2015-04-29T07:18:23Z</time>
      </trkpt>
      <trkpt lat="43.43577" lon="5.71104">
        <ele>346.2</ele>
        <time>2015-04-29T07:18:34Z</time>
      </trkpt>
      <trkpt lat="43.43573" lon="5.71127">
        <ele>348.6</ele>
        <time>2015-04-29T07:18:43Z</time>
      </trkpt>
      <trkpt lat="43.43568" lon="5.7115">
        <ele>351.2</ele>
        <time>2015-04-29T07:18:56Z</time>
      </trkpt>
      <trkpt lat="43.43567" lon="5.71152">
        <ele>351.7</ele>
        <time>2015-04-29T07:18:57Z</time>
      </trkpt>
      <trkpt lat="43.43557" lon="5.71195">
        <ele>359.5</ele>
        <time>2015-04-29T07:19:30Z</time>
      </trkpt>
      <trkpt lat="43.43558" lon="5.71219">
        <ele>358.3</ele>
        <time>2015-04-29T07:19:54Z</time>
      </trkpt>
      <trkpt lat="43.43554" lon="5.71243">
        <ele>361.2</ele>
        <time>2015-04-29T07:20:29Z</time>
      </trkpt>
      <trkpt lat="43.43554" lon="5.71243">
        <ele>361.2</ele>
        <time>2015-04-29T07:20:30Z</time>
      </trkpt>
      <trkpt lat="43.43552" lon="5.71268">
        <ele>360.7</ele>
        <time>2015-04-29T07:24:03Z</time>
      </trkpt>
      <trkpt lat="43.43541" lon="5.71312">
        <ele>362.2</ele>
        <time>2015-04-29T07:24:52Z</time>
      </trkpt>
      <trkpt lat="43.43538" lon="5.71336">
        <ele>362</ele>
        <time>2015-04-29T07:25:12Z</time>
      </trkpt>
      <trkpt lat="43.43538" lon="5.71337">
        <ele>362</ele>
        <time>2015-04-29T07:25:13Z</time>
      </trkpt>
      <trkpt lat="43.43528" lon="5.7138">
        <ele>367.6</ele>
        <time>2015-04-29T07:25:41Z</time>
      </trkpt>
      <trkpt lat="43.43521" lon="5.71403">
        <ele>366.2</ele>
        <time>2015-04-29T07:25:59Z</time>
      </trkpt>
      <trkpt lat="43.43517" lon="5.71427">
        <ele>372.1</ele>
        <time>2015-04-29T07:26:14Z</time>
      </trkpt>
      <trkpt lat="43.43517" lon="5.71428">
        <ele>371.7</ele>
        <time>2015-04-29T07:26:15Z</time>
      </trkpt>
      <trkpt lat="43.43485" lon="5.71426">
        <ele>368.7</ele>
        <time>2015-04-29T07:27:46Z</time>
      </trkpt>
      <trkpt lat="43.43485" lon="5.71425">
        <ele>368.5</ele>
        <time>2015-04-29T07:27:47Z</time>
      </trkpt>
      <trkpt lat="43.43476" lon="5.7138">
        <ele>365.6</ele>
        <time>2015-04-29T07:28:22Z</time>
      </trkpt>
      <trkpt lat="43.43472" lon="5.71356">
        <ele>362.2</ele>
        <time>2015-04-29T07:28:41Z</time>
      </trkpt>
      <trkpt lat="43.43467" lon="5.71333">
        <ele>364.3</ele>
        <time>2015-04-29T07:28:57Z</time>
      </trkpt>
      <trkpt lat="43.43467" lon="5.71331">
        <ele>364.3</ele>
        <time>2015-04-29T07:28:58Z</time>
      </trkpt>
      <trkpt lat="43.43458" lon="5.71286">
        <ele>366.2</ele>
        <time>2015-04-29T07:29:25Z</time>
      </trkpt>
      <trkpt lat="43.43453" lon="5.71263">
        <ele>361.7</ele>
        <time>2015-04-29T07:29:42Z</time>
      </trkpt>
      <trkpt lat="43.43448" lon="5.7124">
        <ele>362.1</ele>
        <time>2015-04-29T07:30:00Z</time>
      </trkpt>
      <trkpt lat="43.43448" lon="5.71239">
        <ele>362.2</ele>
        <time>2015-04-29T07:30:01Z</time>
      </trkpt>
      <trkpt lat="43.43441" lon="5.71195">
        <ele>367.2</ele>
        <time>2015-04-29T07:30:27Z</time>
      </trkpt>
      <trkpt lat="43.43431" lon="5.71175">
        <ele>366.8</ele>
        <time>2015-04-29T07:30:42Z</time>
      </trkpt>
      <trkpt lat="43.43414" lon="5.71167">
        <ele>375.2</ele>
        <time>2015-04-29T07:30:57Z</time>
      </trkpt>
      <trkpt lat="43.43399" lon="5.7118">
        <ele>380</ele>
        <time>2015-04-29T07:31:25Z</time>
      </trkpt>
      <trkpt lat="43.43399" lon="5.7118">
        <ele>380</ele>
        <time>2015-04-29T07:31:26Z</time>
      </trkpt>
      <trkpt lat="43.43379" lon="5.71219">
        <ele>387.5</ele>
        <time>2015-04-29T07:32:08Z</time>
      </trkpt>
      <trkpt lat="43.43365" lon="5.71234">
        <ele>395.6</ele>
        <time>2015-04-29T07:32:56Z</time>
      </trkpt>
      <trkpt lat="43.43365" lon="5.71234">
        <ele>395.2</ele>
        <time>2015-04-29T07:32:57Z</time>
      </trkpt>
      <trkpt lat="43.43335" lon="5.71255">
        <ele>395</ele>
        <time>2015-04-29T07:33:37Z</time>
      </trkpt>
      <trkpt lat="43.43318" lon="5.71264">
        <ele>395.3</ele>
        <time>2015-04-29T07:33:55Z</time>
      </trkpt>
      <trkpt lat="43.43303" lon="5.71275">
        <ele>396.7</ele>
        <time>2015-04-29T07:34:14Z</time>
      </trkpt>
      <trkpt lat="43.43302" lon="5.71276">
        <ele>397.1</ele>
        <time>2015-04-29T07:34:15Z</time>
      </trkpt>
      <trkpt lat="43.43274" lon="5.71301">
        <ele>401.1</ele>
        <time>2015-04-29T07:34:48Z</time>
      </trkpt>
      <trkpt lat="43.4326" lon="5.71316">
        <ele>402.3</ele>
        <time>2015-04-29T07:35:04Z</time>
      </trkpt>
      <trkpt lat="43.43247" lon="5.71332">
        <ele>403.5</ele>
        <time>2015-04-29T07:35:22Z</time>
      </trkpt>
      <trkpt lat="43.43246" lon="5.71333">
        <ele>403.6</ele>
        <time>2015-04-29T07:35:23Z</time>
      </trkpt>
      <trkpt lat="43.43223" lon="5.71367">
        <ele>407.1</ele>
        <time>2015-04-29T07:35:57Z</time>
      </trkpt>
      <trkpt lat="43.43211" lon="5.71384">
        <ele>409.2</ele>
        <time>2015-04-29T07:36:14Z</time>
      </trkpt>
      <trkpt lat="43.432" lon="5.71402">
        <ele>410.1</ele>
        <time>2015-04-29T07:36:32Z</time>
      </trkpt>
      <trkpt lat="43.43199" lon="5.71403">
        <ele>410.1</ele>
        <time>2015-04-29T07:36:33Z</time>
      </trkpt>
      <trkpt lat="43.43178" lon="5.71441">
        <ele>412.8</ele>
        <time>2015-04-29T07:37:16Z</time>
      </trkpt>
      <trkpt lat="43.43165" lon="5.71456">
        <ele>413.1</ele>
        <time>2015-04-29T07:37:34Z</time>
      </trkpt>
      <trkpt lat="43.43164" lon="5.71458">
        <ele>413.1</ele>
        <time>2015-04-29T07:37:35Z</time>
      </trkpt>
      <trkpt lat="43.43136" lon="5.71483">
        <ele>423.2</ele>
        <time>2015-04-29T07:38:11Z</time>
      </trkpt>
      <trkpt lat="43.4312" lon="5.71494">
        <ele>423.5</ele>
        <time>2015-04-29T07:38:28Z</time>
      </trkpt>
      <trkpt lat="43.43107" lon="5.71509">
        <ele>423.7</ele>
        <time>2015-04-29T07:38:46Z</time>
      </trkpt>
      <trkpt lat="43.43106" lon="5.71511">
        <ele>423.6</ele>
        <time>2015-04-29T07:38:47Z</time>
      </trkpt>
      <trkpt lat="43.43081" lon="5.71538">
        <ele>435.5</ele>
        <time>2015-04-29T07:39:27Z</time>
      </trkpt>
      <trkpt lat="43.43063" lon="5.71541">
        <ele>434</ele>
        <time>2015-04-29T07:39:42Z</time>
      </trkpt>
      <trkpt lat="43.43046" lon="5.7154">
        <ele>432</ele>
        <time>2015-04-29T07:40:00Z</time>
      </trkpt>
      <trkpt lat="43.43045" lon="5.7154">
        <ele>431.7</ele>
        <time>2015-04-29T07:40:01Z</time>
      </trkpt>
      <trkpt lat="43.43012" lon="5.71528">
        <ele>432.5</ele>
        <time>2015-04-29T07:40:59Z</time>
      </trkpt>
      <trkpt lat="43.42997" lon="5.71515">
        <ele>431.5</ele>
        <time>2015-04-29T07:41:17Z</time>
      </trkpt>
      <trkpt lat="43.42996" lon="5.71514">
        <ele>431.5</ele>
        <time>2015-04-29T07:41:18Z</time>
      </trkpt>
      <trkpt lat="43.42968" lon="5.7149">
        <ele>429.2</ele>
        <time>2015-04-29T07:41:54Z</time>
      </trkpt>
      <trkpt lat="43.42952" lon="5.71485">
        <ele>440.7</ele>
        <time>2015-04-29T07:42:07Z</time>
      </trkpt>
      <trkpt lat="43.42939" lon="5.71501">
        <ele>445.1</ele>
        <time>2015-04-29T07:42:26Z</time>
      </trkpt>
      <trkpt lat="43.42938" lon="5.71503">
        <ele>445.2</ele>
        <time>2015-04-29T07:42:27Z</time>
      </trkpt>
      <trkpt lat="43.42953" lon="5.71545">
        <ele>440.7</ele>
        <time>2015-04-29T07:43:06Z</time>
      </trkpt>
      <trkpt lat="43.42954" lon="5.71569">
        <ele>452.8</ele>
        <time>2015-04-29T07:43:45Z</time>
      </trkpt>
      <trkpt lat="43.42953" lon="5.71569">
        <ele>453.2</ele>
        <time>2015-04-29T07:43:46Z</time>
      </trkpt>
      <trkpt lat="43.4292" lon="5.71563">
        <ele>449.2</ele>
        <time>2015-04-29T07:44:22Z</time>
      </trkpt>
      <trkpt lat="43.42904" lon="5.71557">
        <ele>443.1</ele>
        <time>2015-04-29T07:44:41Z</time>
      </trkpt>
      <trkpt lat="43.42895" lon="5.71537">
        <ele>440.6</ele>
        <time>2015-04-29T07:44:57Z</time>
      </trkpt>
      <trkpt lat="43.42894" lon="5.71536">
        <ele>440.2</ele>
        <time>2015-04-29T07:44:58Z</time>
      </trkpt>
      <trkpt lat="43.42876" lon="5.71496">
        <ele>451</ele>
        <time>2015-04-29T07:45:26Z</time>
      </trkpt>
      <trkpt lat="43.42864" lon="5.71479">
        <ele>459.5</ele>
        <time>2015-04-29T07:45:43Z</time>
      </trkpt>
      <trkpt lat="43.42849" lon="5.7147">
        <ele>460</ele>
        <time>2015-04-29T07:46:05Z</time>
      </trkpt>
      <trkpt lat="43.42847" lon="5.71469">
        <ele>460.1</ele>
        <time>2015-04-29T07:46:06Z</time>
      </trkpt>
      <trkpt lat="43.42824" lon="5.71437">
        <ele>457.6</ele>
        <time>2015-04-29T07:46:37Z</time>
      </trkpt>
      <trkpt lat="43.42815" lon="5.71417">
        <ele>455.3</ele>
        <time>2015-04-29T07:46:54Z</time>
      </trkpt>
      <trkpt lat="43.42804" lon="5.71397">
        <ele>460.2</ele>
        <time>2015-04-29T07:47:10Z</time>
      </trkpt>
      <trkpt lat="43.42804" lon="5.71396">
        <ele>460.6</ele>
        <time>2015-04-29T07:47:11Z</time>
      </trkpt>
      <trkpt lat="43.42785" lon="5.71357">
        <ele>468.2</ele>
        <time>2015-04-29T07:47:42Z</time>
      </trkpt>
      <trkpt lat="43.42773" lon="5.71339">
        <ele>467.2</ele>
        <time>2015-04-29T07:48:00Z</time>
      </trkpt>
      <trkpt lat="43.42759" lon="5.71325">
        <ele>465.5</ele>
        <time>2015-04-29T07:48:18Z</time>
      </trkpt>
      <trkpt lat="43.42758" lon="5.71325">
        <ele>465.2</ele>
        <time>2015-04-29T07:48:19Z</time>
      </trkpt>
      <trkpt lat="43.42729" lon="5.713">
        <ele>471.5</ele>
        <time>2015-04-29T07:48:52Z</time>
      </trkpt>
      <trkpt lat="43.42718" lon="5.71282">
        <ele>478.1</ele>
        <time>2015-04-29T07:49:07Z</time>
      </trkpt>
      <trkpt lat="43.42705" lon="5.71265">
        <ele>476.7</ele>
        <time>2015-04-29T07:49:27Z</time>
      </trkpt>
      <trkpt lat="43.42704" lon="5.71264">
        <ele>476.5</ele>
        <time>2015-04-29T07:49:28Z</time>
      </trkpt>
      <trkpt lat="43.42674" lon="5.71244">
        <ele>472.2</ele>
        <time>2015-04-29T07:50:01Z</time>
      </trkpt>
      <trkpt lat="43.42663" lon="5.71224">
        <ele>470.7</ele>
        <time>2015-04-29T07:50:21Z</time>
      </trkpt>
      <trkpt lat="43.42655" lon="5.71204">
        <ele>473.2</ele>
        <time>2015-04-29T07:50:36Z</time>
      </trkpt>
      <trkpt lat="43.42654" lon="5.71202">
        <ele>474.6</ele>
        <time>2015-04-29T07:50:37Z</time>
      </trkpt>
      <trkpt lat="43.42628" lon="5.71173">
        <ele>484.3</ele>
        <time>2015-04-29T07:51:06Z</time>
      </trkpt>
      <trkpt lat="43.42624" lon="5.7115">
        <ele>479.2</ele>
        <time>2015-04-29T07:51:27Z</time>
      </trkpt>
      <trkpt lat="43.42613" lon="5.71131">
        <ele>477.7</ele>
        <time>2015-04-29T07:51:48Z</time>
      </trkpt>
      <trkpt lat="43.42612" lon="5.7113">
        <ele>477.6</ele>
        <time>2015-04-29T07:51:49Z</time>
      </trkpt>
      <trkpt lat="43.42579" lon="5.7113">
        <ele>487.7</ele>
        <time>2015-04-29T07:52:24Z</time>
      </trkpt>
      <trkpt lat="43.42561" lon="5.71129">
        <ele>487.7</ele>
        <time>2015-04-29T07:52:41Z</time>
      </trkpt>
      <trkpt lat="43.42552" lon="5.7111">
        <ele>485.1</ele>
        <time>2015-04-29T07:53:00Z</time>
      </trkpt>
      <trkpt lat="43.42551" lon="5.71108">
        <ele>485.8</ele>
        <time>2015-04-29T07:53:01Z</time>
      </trkpt>
      <trkpt lat="43.42533" lon="5.7107">
        <ele>499.6</ele>
        <time>2015-04-29T07:56:53Z</time>
      </trkpt>
      <trkpt lat="43.42532" lon="5.71069">
        <ele>499.7</ele>
        <time>2015-04-29T07:56:54Z</time>
      </trkpt>
      <trkpt lat="43.42501" lon="5.71054">
        <ele>500.3</ele>
        <time>2015-04-29T07:57:25Z</time>
      </trkpt>
      <trkpt lat="43.42485" lon="5.71065">
        <ele>507.6</ele>
        <time>2015-04-29T07:58:04Z</time>
      </trkpt>
      <trkpt lat="43.42484" lon="5.71066">
        <ele>507.8</ele>
        <time>2015-04-29T07:58:05Z</time>
      </trkpt>
      <trkpt lat="43.42455" lon="5.71049">
        <ele>504.8</ele>
        <time>2015-04-29T07:58:46Z</time>
      </trkpt>
      <trkpt lat="43.42442" lon="5.71031">
        <ele>509.6</ele>
        <time>2015-04-29T07:59:01Z</time>
      </trkpt>
      <trkpt lat="43.42428" lon="5.71016">
        <ele>516</ele>
        <time>2015-04-29T07:59:17Z</time>
      </trkpt>
      <trkpt lat="43.42427" lon="5.71015">
        <ele>516</ele>
        <time>2015-04-29T07:59:18Z</time>
      </trkpt>
      <trkpt lat="43.42398" lon="5.70994">
        <ele>507.5</ele>
        <time>2015-04-29T07:59:57Z</time>
      </trkpt>
      <trkpt lat="43.42384" lon="5.70978">
        <ele>512.5</ele>
        <time>2015-04-29T08:00:10Z</time>
      </trkpt>
      <trkpt lat="43.42371" lon="5.70963">
        <ele>509.2</ele>
        <time>2015-04-29T08:00:28Z</time>
      </trkpt>
      <trkpt lat="43.4237" lon="5.70962">
        <ele>509.7</ele>
        <time>2015-04-29T08:00:29Z</time>
      </trkpt>
      <trkpt lat="43.42347" lon="5.70929">
        <ele>517</ele>
        <time>2015-04-29T08:01:00Z</time>
      </trkpt>
      <trkpt lat="43.42335" lon="5.70912">
        <ele>518.2</ele>
        <time>2015-04-29T08:01:19Z</time>
      </trkpt>
      <trkpt lat="43.42328" lon="5.70891">
        <ele>521.2</ele>
        <time>2015-04-29T08:01:38Z</time>
      </trkpt>
      <trkpt lat="43.42328" lon="5.7089">
        <ele>521.2</ele>
        <time>2015-04-29T08:01:39Z</time>
      </trkpt>
      <trkpt lat="43.42313" lon="5.70849">
        <ele>521.9</ele>
        <time>2015-04-29T08:02:15Z</time>
      </trkpt>
      <trkpt lat="43.42305" lon="5.70828">
        <ele>527.7</ele>
        <time>2015-04-29T08:02:32Z</time>
      </trkpt>
      <trkpt lat="43.42295" lon="5.70808">
        <ele>527.5</ele>
        <time>2015-04-29T08:02:51Z</time>
      </trkpt>
      <trkpt lat="43.42294" lon="5.70807">
        <ele>527.2</ele>
        <time>2015-04-29T08:02:52Z</time>
      </trkpt>
      <trkpt lat="43.42286" lon="5.70851">
        <ele>539.4</ele>
        <time>2015-04-29T08:03:42Z</time>
      </trkpt>
      <trkpt lat="43.42288" lon="5.70876">
        <ele>539.2</ele>
        <time>2015-04-29T08:04:01Z</time>
      </trkpt>
      <trkpt lat="43.42288" lon="5.70877">
        <ele>539.5</ele>
        <time>2015-04-29T08:04:02Z</time>
      </trkpt>
      <trkpt lat="43.42291" lon="5.70925">
        <ele>543.2</ele>
        <time>2015-04-29T08:04:40Z</time>
      </trkpt>
      <trkpt lat="43.42295" lon="5.70949">
        <ele>545.5</ele>
        <time>2015-04-29T08:04:58Z</time>
      </trkpt>
      <trkpt lat="43.423" lon="5.70972">
        <ele>550.2</ele>
        <time>2015-04-29T08:05:16Z</time>
      </trkpt>
      <trkpt lat="43.42301" lon="5.70974">
        <ele>553.4</ele>
        <time>2015-04-29T08:05:17Z</time>
      </trkpt>
      <trkpt lat="43.42311" lon="5.71018">
        <ele>555</ele>
        <time>2015-04-29T08:05:49Z</time>
      </trkpt>
      <trkpt lat="43.42317" lon="5.71041">
        <ele>561</ele>
        <time>2015-04-29T08:06:09Z</time>
      </trkpt>
      <trkpt lat="43.42321" lon="5.71064">
        <ele>556.5</ele>
        <time>2015-04-29T08:06:26Z</time>
      </trkpt>
      <trkpt lat="43.42322" lon="5.71065">
        <ele>556.2</ele>
        <time>2015-04-29T08:06:27Z</time>
      </trkpt>
      <trkpt lat="43.42338" lon="5.71105">
        <ele>559.2</ele>
        <time>2015-04-29T08:07:00Z</time>
      </trkpt>
      <trkpt lat="43.42344" lon="5.71127">
        <ele>558.5</ele>
        <time>2015-04-29T08:07:18Z</time>
      </trkpt>
      <trkpt lat="43.42346" lon="5.71151">
        <ele>561.5</ele>
        <time>2015-04-29T08:07:37Z</time>
      </trkpt>
      <trkpt lat="43.42346" lon="5.71152">
        <ele>561.9</ele>
        <time>2015-04-29T08:07:38Z</time>
      </trkpt>
      <trkpt lat="43.42357" lon="5.71172">
        <ele>579.5</ele>
        <time>2015-04-29T08:18:11Z</time>
      </trkpt>
      <trkpt lat="43.42359" lon="5.71218">
        <ele>572.5</ele>
        <time>2015-04-29T08:18:47Z</time>
      </trkpt>
      <trkpt lat="43.42362" lon="5.71242">
        <ele>573</ele>
        <time>2015-04-29T08:19:04Z</time>
      </trkpt>
      <trkpt lat="43.42367" lon="5.71265">
        <ele>573</ele>
        <time>2015-04-29T08:19:22Z</time>
      </trkpt>
      <trkpt lat="43.42368" lon="5.71267">
        <ele>573.5</ele>
        <time>2015-04-29T08:19:23Z</time>
      </trkpt>
      <trkpt lat="43.42387" lon="5.71305">
        <ele>578.5</ele>
        <time>2015-04-29T08:19:57Z</time>
      </trkpt>
      <trkpt lat="43.42391" lon="5.71329">
        <ele>579.2</ele>
        <time>2015-04-29T08:20:15Z</time>
      </trkpt>
      <trkpt lat="43.42389" lon="5.71352">
        <ele>577</ele>
        <time>2015-04-29T08:20:36Z</time>
      </trkpt>
      <trkpt lat="43.4239" lon="5.71354">
        <ele>577</ele>
        <time>2015-04-29T08:20:37Z</time>
      </trkpt>
      <trkpt lat="43.42399" lon="5.71399">
        <ele>590.7</ele>
        <time>2015-04-29T08:21:10Z</time>
      </trkpt>
      <trkpt lat="43.42407" lon="5.7142">
        <ele>583.7</ele>
        <time>2015-04-29T08:21:26Z</time>
      </trkpt>
      <trkpt lat="43.42415" lon="5.71442">
        <ele>587.7</ele>
        <time>2015-04-29T08:21:44Z</time>
      </trkpt>
      <trkpt lat="43.42415" lon="5.71443">
        <ele>587.7</ele>
        <time>2015-04-29T08:21:45Z</time>
      </trkpt>
      <trkpt lat="43.42408" lon="5.71454">
        <ele>589.2</ele>
        <time>2015-04-29T08:22:48Z</time>
      </trkpt>
      <trkpt lat="43.42408" lon="5.71453">
        <ele>589.4</ele>
        <time>2015-04-29T08:22:49Z</time>
      </trkpt>
      <trkpt lat="43.4238" lon="5.71425">
        <ele>593.7</ele>
        <time>2015-04-29T08:23:31Z</time>
      </trkpt>
      <trkpt lat="43.42365" lon="5.71413">
        <ele>594.7</ele>
        <time>2015-04-29T08:23:54Z</time>
      </trkpt>
      <trkpt lat="43.42364" lon="5.71412">
        <ele>595.2</ele>
        <time>2015-04-29T08:23:55Z</time>
      </trkpt>
      <trkpt lat="43.42346" lon="5.71373">
        <ele>603.7</ele>
        <time>2015-04-29T08:24:44Z</time>
      </trkpt>
      <trkpt lat="43.42331" lon="5.71361">
        <ele>608</ele>
        <time>2015-04-29T08:26:15Z</time>
      </trkpt>
      <trkpt lat="43.4233" lon="5.7136">
        <ele>608</ele>
        <time>2015-04-29T08:26:16Z</time>
      </trkpt>
      <trkpt lat="43.42325" lon="5.71337">
        <ele>608.5</ele>
        <time>2015-04-29T08:29:52Z</time>
      </trkpt>
      <trkpt lat="43.42302" lon="5.71301">
        <ele>612</ele>
        <time>2015-04-29T08:30:31Z</time>
      </trkpt>
      <trkpt lat="43.42288" lon="5.71288">
        <ele>613.4</ele>
        <time>2015-04-29T08:30:51Z</time>
      </trkpt>
      <trkpt lat="43.42285" lon="5.71263">
        <ele>612.7</ele>
        <time>2015-04-29T08:31:15Z</time>
      </trkpt>
      <trkpt lat="43.42285" lon="5.71262">
        <ele>613</ele>
        <time>2015-04-29T08:31:16Z</time>
      </trkpt>
      <trkpt lat="43.4228" lon="5.71216">
        <ele>615.2</ele>
        <time>2015-04-29T08:31:50Z</time>
      </trkpt>
      <trkpt lat="43.4227" lon="5.71195">
        <ele>621.2</ele>
        <time>2015-04-29T08:32:06Z</time>
      </trkpt>
      <trkpt lat="43.4226" lon="5.71175">
        <ele>618.2</ele>
        <time>2015-04-29T08:32:27Z</time>
      </trkpt>
      <trkpt lat="43.42259" lon="5.71174">
        <ele>617.7</ele>
        <time>2015-04-29T08:32:28Z</time>
      </trkpt>
      <trkpt lat="43.4224" lon="5.71136">
        <ele>624.2</ele>
        <time>2015-04-29T08:33:03Z</time>
      </trkpt>
      <trkpt lat="43.42229" lon="5.71117">
        <ele>624.9</ele>
        <time>2015-04-29T08:33:20Z</time>
      </trkpt>
      <trkpt lat="43.42219" lon="5.71097">
        <ele>627.5</ele>
        <time>2015-04-29T08:33:36Z</time>
      </trkpt>
      <trkpt lat="43.42219" lon="5.71096">
        <ele>627.7</ele>
        <time>2015-04-29T08:33:37Z</time>
      </trkpt>
      <trkpt lat="43.42198" lon="5.71061">
        <ele>630.5</ele>
        <time>2015-04-29T08:34:07Z</time>
      </trkpt>
      <trkpt lat="43.42185" lon="5.71044">
        <ele>630.7</ele>
        <time>2015-04-29T08:34:23Z</time>
      </trkpt>
      <trkpt lat="43.42172" lon="5.71028">
        <ele>630.2</ele>
        <time>2015-04-29T08:34:39Z</time>
      </trkpt>
      <trkpt lat="43.42171" lon="5.71027">
        <ele>630.2</ele>
        <time>2015-04-29T08:34:40Z</time>
      </trkpt>
      <trkpt lat="43.4215" lon="5.7099">
        <ele>630.7</ele>
        <time>2015-04-29T08:35:12Z</time>
      </trkpt>
      <trkpt lat="43.42141" lon="5.7097">
        <ele>631</ele>
        <time>2015-04-29T08:35:30Z</time>
      </trkpt>
      <trkpt lat="43.42127" lon="5.70955">
        <ele>632.7</ele>
        <time>2015-04-29T08:35:45Z</time>
      </trkpt>
      <trkpt lat="43.42126" lon="5.70954">
        <ele>633.2</ele>
        <time>2015-04-29T08:35:46Z</time>
      </trkpt>
      <trkpt lat="43.42099" lon="5.70928">
        <ele>636.4</ele>
        <time>2015-04-29T08:36:17Z</time>
      </trkpt>
      <trkpt lat="43.42086" lon="5.70912">
        <ele>637.7</ele>
        <time>2015-04-29T08:36:32Z</time>
      </trkpt>
      <trkpt lat="43.42073" lon="5.70896">
        <ele>637.2</ele>
        <time>2015-04-29T08:36:49Z</time>
      </trkpt>
      <trkpt lat="43.42072" lon="5.70895">
        <ele>637.2</ele>
        <time>2015-04-29T08:36:50Z</time>
      </trkpt>
      <trkpt lat="43.42054" lon="5.70858">
        <ele>640</ele>
        <time>2015-04-29T08:37:20Z</time>
      </trkpt>
      <trkpt lat="43.42046" lon="5.70836">
        <ele>641.9</ele>
        <time>2015-04-29T08:37:36Z</time>
      </trkpt>
      <trkpt lat="43.4204" lon="5.70814">
        <ele>640.5</ele>
        <time>2015-04-29T08:37:52Z</time>
      </trkpt>
      <trkpt lat="43.42039" lon="5.70813">
        <ele>640.5</ele>
        <time>2015-04-29T08:37:53Z</time>
      </trkpt>
      <trkpt lat="43.42024" lon="5.70771">
        <ele>640</ele>
        <time>2015-04-29T08:38:23Z</time>
      </trkpt>
      <trkpt lat="43.42016" lon="5.7075">
        <ele>639</ele>
        <time>2015-04-29T08:38:40Z</time>
      </trkpt>
      <trkpt lat="43.42006" lon="5.7073">
        <ele>637.9</ele>
        <time>2015-04-29T08:38:59Z</time>
      </trkpt>
      <trkpt lat="43.42005" lon="5.70728">
        <ele>637.9</ele>
        <time>2015-04-29T08:39:00Z</time>
      </trkpt>
      <trkpt lat="43.41988" lon="5.70688">
        <ele>636.7</ele>
        <time>2015-04-29T08:39:32Z</time>
      </trkpt>
      <trkpt lat="43.41979" lon="5.70668">
        <ele>638</ele>
        <time>2015-04-29T08:39:48Z</time>
      </trkpt>
      <trkpt lat="43.41968" lon="5.7065">
        <ele>638.9</ele>
        <time>2015-04-29T08:40:03Z</time>
      </trkpt>
      <trkpt lat="43.41967" lon="5.70649">
        <ele>639</ele>
        <time>2015-04-29T08:40:04Z</time>
      </trkpt>
      <trkpt lat="43.41956" lon="5.70606">
        <ele>634</ele>
        <time>2015-04-29T08:40:40Z</time>
      </trkpt>
      <trkpt lat="43.41954" lon="5.70583">
        <ele>630.5</ele>
        <time>2015-04-29T08:40:56Z</time>
      </trkpt>
      <trkpt lat="43.41956" lon="5.70559">
        <ele>634.7</ele>
        <time>2015-04-29T08:41:09Z</time>
      </trkpt>
      <trkpt lat="43.41956" lon="5.70557">
        <ele>635.2</ele>
        <time>2015-04-29T08:41:10Z</time>
      </trkpt>
      <trkpt lat="43.41973" lon="5.70553">
        <ele>647.4</ele>
        <time>2015-04-29T08:44:15Z</time>
      </trkpt>
      <trkpt lat="43.41959" lon="5.70538">
        <ele>636.7</ele>
        <time>2015-04-29T08:47:38Z</time>
      </trkpt>
      <trkpt lat="43.41926" lon="5.70521">
        <ele>636.4</ele>
        <time>2015-04-29T08:48:34Z</time>
      </trkpt>
      <trkpt lat="43.41911" lon="5.70511">
        <ele>635.2</ele>
        <time>2015-04-29T08:48:49Z</time>
      </trkpt>
      <trkpt lat="43.41909" lon="5.7051">
        <ele>635</ele>
        <time>2015-04-29T08:48:50Z</time>
      </trkpt>
      <trkpt lat="43.41875" lon="5.70503">
        <ele>630</ele>
        <time>2015-04-29T08:49:26Z</time>
      </trkpt>
      <trkpt lat="43.41861" lon="5.70491">
        <ele>633.2</ele>
        <time>2015-04-29T08:49:46Z</time>
      </trkpt>
      <trkpt lat="43.41845" lon="5.7048">
        <ele>631.7</ele>
        <time>2015-04-29T08:50:31Z</time>
      </trkpt>
      <trkpt lat="43.41844" lon="5.7048">
        <ele>631.5</ele>
        <time>2015-04-29T08:50:32Z</time>
      </trkpt>
      <trkpt lat="43.41813" lon="5.70493">
        <ele>631.7</ele>
        <time>2015-04-29T08:51:17Z</time>
      </trkpt>
      <trkpt lat="43.41796" lon="5.70502">
        <ele>629.9</ele>
        <time>2015-04-29T08:52:26Z</time>
      </trkpt>
      <trkpt lat="43.41796" lon="5.70502">
        <ele>629.4</ele>
        <time>2015-04-29T08:52:27Z</time>
      </trkpt>
      <trkpt lat="43.41777" lon="5.70503">
        <ele>629.7</ele>
        <time>2015-04-29T08:53:51Z</time>
      </trkpt>
      <trkpt lat="43.4175" lon="5.70475">
        <ele>641</ele>
        <time>2015-04-29T08:54:51Z</time>
      </trkpt>
      <trkpt lat="43.4175" lon="5.70474">
        <ele>641.2</ele>
        <time>2015-04-29T08:54:52Z</time>
      </trkpt>
      <trkpt lat="43.41745" lon="5.70428">
        <ele>650.5</ele>
        <time>2015-04-29T08:55:46Z</time>
      </trkpt>
      <trkpt lat="43.4176" lon="5.70414">
        <ele>653</ele>
        <time>2015-04-29T08:56:12Z</time>
      </trkpt>
      <trkpt lat="43.4176" lon="5.70414">
        <ele>653</ele>
        <time>2015-04-29T08:56:13Z</time>
      </trkpt>
      <trkpt lat="43.41759" lon="5.70411">
        <ele>654</ele>
        <time>2015-04-29T09:06:24Z</time>
      </trkpt>
      <trkpt lat="43.41758" lon="5.70411">
        <ele>653.7</ele>
        <time>2015-04-29T09:06:25Z</time>
      </trkpt>
      <trkpt lat="43.41744" lon="5.70446">
        <ele>647</ele>
        <time>2015-04-29T09:07:29Z</time>
      </trkpt>
      <trkpt lat="43.41744" lon="5.70447">
        <ele>647</ele>
        <time>2015-04-29T09:07:30Z</time>
      </trkpt>
      <trkpt lat="43.41767" lon="5.70482">
        <ele>623.9</ele>
        <time>2015-04-29T09:08:25Z</time>
      </trkpt>
      <trkpt lat="43.41774" lon="5.70505">
        <ele>630.7</ele>
        <time>2015-04-29T09:08:42Z</time>
      </trkpt>
      <trkpt lat="43.41775" lon="5.70506">
        <ele>631</ele>
        <time>2015-04-29T09:08:43Z</time>
      </trkpt>
      <trkpt lat="43.41808" lon="5.70499">
        <ele>633.5</ele>
        <time>2015-04-29T09:09:28Z</time>
      </trkpt>
      <trkpt lat="43.41822" lon="5.70484">
        <ele>633.5</ele>
        <time>2015-04-29T09:09:50Z</time>
      </trkpt>
      <trkpt lat="43.41823" lon="5.70484">
        <ele>633</ele>
        <time>2015-04-29T09:09:51Z</time>
      </trkpt>
      <trkpt lat="43.4184" lon="5.70481">
        <ele>633.5</ele>
        <time>2015-04-29T09:11:33Z</time>
      </trkpt>
      <trkpt lat="43.41851" lon="5.70519">
        <ele>624</ele>
        <time>2015-04-29T09:12:17Z</time>
      </trkpt>
      <trkpt lat="43.41862" lon="5.70538">
        <ele>615.7</ele>
        <time>2015-04-29T09:12:34Z</time>
      </trkpt>
      <trkpt lat="43.41863" lon="5.70539">
        <ele>615.4</ele>
        <time>2015-04-29T09:12:35Z</time>
      </trkpt>
      <trkpt lat="43.41884" lon="5.70576">
        <ele>616</ele>
        <time>2015-04-29T09:13:04Z</time>
      </trkpt>
      <trkpt lat="43.41897" lon="5.70593">
        <ele>619</ele>
        <time>2015-04-29T09:13:21Z</time>
      </trkpt>
      <trkpt lat="43.41911" lon="5.70606">
        <ele>624</ele>
        <time>2015-04-29T09:13:37Z</time>
      </trkpt>
      <trkpt lat="43.41912" lon="5.70607">
        <ele>624</ele>
        <time>2015-04-29T09:13:38Z</time>
      </trkpt>
      <trkpt lat="43.41929" lon="5.70648">
        <ele>628</ele>
        <time>2015-04-29T09:14:15Z</time>
      </trkpt>
      <trkpt lat="43.4194" lon="5.70666">
        <ele>630</ele>
        <time>2015-04-29T09:14:29Z</time>
      </trkpt>
      <trkpt lat="43.41953" lon="5.70683">
        <ele>628.9</ele>
        <time>2015-04-29T09:14:44Z</time>
      </trkpt>
      <trkpt lat="43.41954" lon="5.70684">
        <ele>628.9</ele>
        <time>2015-04-29T09:14:45Z</time>
      </trkpt>
      <trkpt lat="43.4198" lon="5.70715">
        <ele>628.7</ele>
        <time>2015-04-29T09:15:17Z</time>
      </trkpt>
      <trkpt lat="43.41994" lon="5.70729">
        <ele>629.5</ele>
        <time>2015-04-29T09:15:34Z</time>
      </trkpt>
      <trkpt lat="43.42008" lon="5.70745">
        <ele>630</ele>
        <time>2015-04-29T09:15:51Z</time>
      </trkpt>
      <trkpt lat="43.42009" lon="5.70746">
        <ele>629.9</ele>
        <time>2015-04-29T09:15:52Z</time>
      </trkpt>
      <trkpt lat="43.42028" lon="5.70784">
        <ele>634.5</ele>
        <time>2015-04-29T09:16:20Z</time>
      </trkpt>
      <trkpt lat="43.42036" lon="5.70806">
        <ele>636</ele>
        <time>2015-04-29T09:16:35Z</time>
      </trkpt>
      <trkpt lat="43.42043" lon="5.70828">
        <ele>636.5</ele>
        <time>2015-04-29T09:16:50Z</time>
      </trkpt>
      <trkpt lat="43.42052" lon="5.70849">
        <ele>637</ele>
        <time>2015-04-29T09:17:06Z</time>
      </trkpt>
      <trkpt lat="43.42052" lon="5.7085">
        <ele>636.9</ele>
        <time>2015-04-29T09:17:07Z</time>
      </trkpt>
      <trkpt lat="43.42069" lon="5.7089">
        <ele>633.4</ele>
        <time>2015-04-29T09:17:36Z</time>
      </trkpt>
      <trkpt lat="43.42082" lon="5.70908">
        <ele>636.5</ele>
        <time>2015-04-29T09:17:51Z</time>
      </trkpt>
      <trkpt lat="43.42095" lon="5.70923">
        <ele>633.9</ele>
        <time>2015-04-29T09:18:06Z</time>
      </trkpt>
      <trkpt lat="43.42108" lon="5.70938">
        <ele>634.5</ele>
        <time>2015-04-29T09:18:20Z</time>
      </trkpt>
      <trkpt lat="43.42109" lon="5.70939">
        <ele>634.2</ele>
        <time>2015-04-29T09:18:21Z</time>
      </trkpt>
      <trkpt lat="43.42135" lon="5.70966">
        <ele>628.7</ele>
        <time>2015-04-29T09:18:49Z</time>
      </trkpt>
      <trkpt lat="43.42146" lon="5.70986">
        <ele>629.4</ele>
        <time>2015-04-29T09:19:03Z</time>
      </trkpt>
      <trkpt lat="43.42156" lon="5.71005">
        <ele>628.4</ele>
        <time>2015-04-29T09:19:17Z</time>
      </trkpt>
      <trkpt lat="43.42168" lon="5.71023">
        <ele>628</ele>
        <time>2015-04-29T09:19:31Z</time>
      </trkpt>
      <trkpt lat="43.42169" lon="5.71024">
        <ele>628</ele>
        <time>2015-04-29T09:19:32Z</time>
      </trkpt>
      <trkpt lat="43.42192" lon="5.71055">
        <ele>629.5</ele>
        <time>2015-04-29T09:19:57Z</time>
      </trkpt>
      <trkpt lat="43.42203" lon="5.71073">
        <ele>627</ele>
        <time>2015-04-29T09:20:12Z</time>
      </trkpt>
      <trkpt lat="43.42215" lon="5.71091">
        <ele>623.7</ele>
        <time>2015-04-29T09:20:28Z</time>
      </trkpt>
      <trkpt lat="43.42226" lon="5.7111">
        <ele>623.2</ele>
        <time>2015-04-29T09:20:44Z</time>
      </trkpt>
      <trkpt lat="43.42227" lon="5.71111">
        <ele>623.2</ele>
        <time>2015-04-29T09:20:45Z</time>
      </trkpt>
      <trkpt lat="43.42246" lon="5.7115">
        <ele>622.2</ele>
        <time>2015-04-29T09:21:16Z</time>
      </trkpt>
      <trkpt lat="43.42257" lon="5.71168">
        <ele>618.7</ele>
        <time>2015-04-29T09:21:33Z</time>
      </trkpt>
      <trkpt lat="43.42267" lon="5.71188">
        <ele>617</ele>
        <time>2015-04-29T09:21:49Z</time>
      </trkpt>
      <trkpt lat="43.42268" lon="5.71189">
        <ele>616.7</ele>
        <time>2015-04-29T09:21:50Z</time>
      </trkpt>
      <trkpt lat="43.42284" lon="5.71231">
        <ele>615.7</ele>
        <time>2015-04-29T09:22:22Z</time>
      </trkpt>
      <trkpt lat="43.42286" lon="5.71254">
        <ele>614</ele>
        <time>2015-04-29T09:22:38Z</time>
      </trkpt>
      <trkpt lat="43.42288" lon="5.71278">
        <ele>611.7</ele>
        <time>2015-04-29T09:22:55Z</time>
      </trkpt>
      <trkpt lat="43.42288" lon="5.71279">
        <ele>611.5</ele>
        <time>2015-04-29T09:22:56Z</time>
      </trkpt>
      <trkpt lat="43.42286" lon="5.71325">
        <ele>613.2</ele>
        <time>2015-04-29T09:23:25Z</time>
      </trkpt>
      <trkpt lat="43.42286" lon="5.71349">
        <ele>615.2</ele>
        <time>2015-04-29T09:23:40Z</time>
      </trkpt>
      <trkpt lat="43.42292" lon="5.71371">
        <ele>616</ele>
        <time>2015-04-29T09:23:55Z</time>
      </trkpt>
      <trkpt lat="43.42299" lon="5.71394">
        <ele>617</ele>
        <time>2015-04-29T09:24:10Z</time>
      </trkpt>
      <trkpt lat="43.423" lon="5.71395">
        <ele>616.7</ele>
        <time>2015-04-29T09:24:11Z</time>
      </trkpt>
      <trkpt lat="43.42319" lon="5.71433">
        <ele>613.5</ele>
        <time>2015-04-29T09:24:42Z</time>
      </trkpt>
      <trkpt lat="43.42332" lon="5.7145">
        <ele>611.7</ele>
        <time>2015-04-29T09:24:58Z</time>
      </trkpt>
      <trkpt lat="43.42345" lon="5.71466">
        <ele>613.4</ele>
        <time>2015-04-29T09:25:13Z</time>
      </trkpt>
      <trkpt lat="43.42346" lon="5.71467">
        <ele>613.4</ele>
        <time>2015-04-29T09:25:14Z</time>
      </trkpt>
      <trkpt lat="43.42365" lon="5.71506">
        <ele>614.5</ele>
        <time>2015-04-29T09:25:46Z</time>
      </trkpt>
      <trkpt lat="43.42371" lon="5.71529">
        <ele>614.7</ele>
        <time>2015-04-29T09:26:03Z</time>
      </trkpt>
      <trkpt lat="43.42379" lon="5.71551">
        <ele>615.5</ele>
        <time>2015-04-29T09:26:20Z</time>
      </trkpt>
      <trkpt lat="43.42379" lon="5.71552">
        <ele>615.9</ele>
        <time>2015-04-29T09:26:21Z</time>
      </trkpt>
      <trkpt lat="43.42395" lon="5.71593">
        <ele>619.5</ele>
        <time>2015-04-29T09:26:53Z</time>
      </trkpt>
      <trkpt lat="43.42403" lon="5.71614">
        <ele>620.2</ele>
        <time>2015-04-29T09:27:08Z</time>
      </trkpt>
      <trkpt lat="43.42411" lon="5.71635">
        <ele>619.7</ele>
        <time>2015-04-29T09:27:24Z</time>
      </trkpt>
      <trkpt lat="43.42412" lon="5.71637">
        <ele>619.4</ele>
        <time>2015-04-29T09:27:25Z</time>
      </trkpt>
      <trkpt lat="43.42428" lon="5.71679">
        <ele>617.2</ele>
        <time>2015-04-29T09:27:57Z</time>
      </trkpt>
      <trkpt lat="43.42438" lon="5.71699">
        <ele>622.2</ele>
        <time>2015-04-29T09:28:13Z</time>
      </trkpt>
      <trkpt lat="43.42446" lon="5.71719">
        <ele>621.4</ele>
        <time>2015-04-29T09:28:30Z</time>
      </trkpt>
      <trkpt lat="43.42447" lon="5.71721">
        <ele>621.4</ele>
        <time>2015-04-29T09:28:31Z</time>
      </trkpt>
      <trkpt lat="43.42471" lon="5.71752">
        <ele>623.9</ele>
        <time>2015-04-29T09:29:02Z</time>
      </trkpt>
      <trkpt lat="43.42486" lon="5.71766">
        <ele>625</ele>
        <time>2015-04-29T09:29:17Z</time>
      </trkpt>
      <trkpt lat="43.425" lon="5.7178">
        <ele>624.5</ele>
        <time>2015-04-29T09:29:40Z</time>
      </trkpt>
      <trkpt lat="43.42501" lon="5.7178">
        <ele>624.5</ele>
        <time>2015-04-29T09:29:41Z</time>
      </trkpt>
      <trkpt lat="43.42509" lon="5.71799">
        <ele>626.2</ele>
        <time>2015-04-29T09:31:40Z</time>
      </trkpt>
      <trkpt lat="43.42509" lon="5.71799">
        <ele>626</ele>
        <time>2015-04-29T09:31:41Z</time>
      </trkpt>
      <trkpt lat="43.42517" lon="5.71822">
        <ele>623.7</ele>
        <time>2015-04-29T09:32:45Z</time>
      </trkpt>
      <trkpt lat="43.42533" lon="5.71864">
        <ele>622</ele>
        <time>2015-04-29T09:33:16Z</time>
      </trkpt>
      <trkpt lat="43.42539" lon="5.71885">
        <ele>624.7</ele>
        <time>2015-04-29T09:33:31Z</time>
      </trkpt>
      <trkpt lat="43.42541" lon="5.71909">
        <ele>624.2</ele>
        <time>2015-04-29T09:33:45Z</time>
      </trkpt>
      <trkpt lat="43.42541" lon="5.7191">
        <ele>624</ele>
        <time>2015-04-29T09:33:46Z</time>
      </trkpt>
      <trkpt lat="43.42545" lon="5.71955">
        <ele>622</ele>
        <time>2015-04-29T09:34:15Z</time>
      </trkpt>
      <trkpt lat="43.42545" lon="5.71979">
        <ele>622</ele>
        <time>2015-04-29T09:34:31Z</time>
      </trkpt>
      <trkpt lat="43.42542" lon="5.72003">
        <ele>622.5</ele>
        <time>2015-04-29T09:34:45Z</time>
      </trkpt>
      <trkpt lat="43.4254" lon="5.72027">
        <ele>620.4</ele>
        <time>2015-04-29T09:35:00Z</time>
      </trkpt>
      <trkpt lat="43.4254" lon="5.72029">
        <ele>620.2</ele>
        <time>2015-04-29T09:35:01Z</time>
      </trkpt>
      <trkpt lat="43.42544" lon="5.72075">
        <ele>621.7</ele>
        <time>2015-04-29T09:35:30Z</time>
      </trkpt>
      <trkpt lat="43.42548" lon="5.72098">
        <ele>622.9</ele>
        <time>2015-04-29T09:35:47Z</time>
      </trkpt>
      <trkpt lat="43.42551" lon="5.72122">
        <ele>620.7</ele>
        <time>2015-04-29T09:36:02Z</time>
      </trkpt>
      <trkpt lat="43.42551" lon="5.72124">
        <ele>620.7</ele>
        <time>2015-04-29T09:36:03Z</time>
      </trkpt>
      <trkpt lat="43.42552" lon="5.72169">
        <ele>622.5</ele>
        <time>2015-04-29T09:36:33Z</time>
      </trkpt>
      <trkpt lat="43.42547" lon="5.72192">
        <ele>621.5</ele>
        <time>2015-04-29T09:36:49Z</time>
      </trkpt>
      <trkpt lat="43.42541" lon="5.72212">
        <ele>621.2</ele>
        <time>2015-04-29T09:37:03Z</time>
      </trkpt>
      <trkpt lat="43.4254" lon="5.72215">
        <ele>622.7</ele>
        <time>2015-04-29T09:37:04Z</time>
      </trkpt>
      <trkpt lat="43.42545" lon="5.72258">
        <ele>623</ele>
        <time>2015-04-29T09:37:31Z</time>
      </trkpt>
      <trkpt lat="43.4255" lon="5.7228">
        <ele>623.2</ele>
        <time>2015-04-29T09:37:46Z</time>
      </trkpt>
      <trkpt lat="43.42556" lon="5.72303">
        <ele>619.2</ele>
        <time>2015-04-29T09:38:01Z</time>
      </trkpt>
      <trkpt lat="43.42561" lon="5.72325">
        <ele>619.9</ele>
        <time>2015-04-29T09:38:15Z</time>
      </trkpt>
      <trkpt lat="43.42562" lon="5.72327">
        <ele>620.2</ele>
        <time>2015-04-29T09:38:16Z</time>
      </trkpt>
      <trkpt lat="43.42575" lon="5.72371">
        <ele>618.2</ele>
        <time>2015-04-29T09:38:46Z</time>
      </trkpt>
      <trkpt lat="43.42581" lon="5.72392">
        <ele>622</ele>
        <time>2015-04-29T09:39:00Z</time>
      </trkpt>
      <trkpt lat="43.42588" lon="5.72415">
        <ele>623.5</ele>
        <time>2015-04-29T09:39:17Z</time>
      </trkpt>
      <trkpt lat="43.42589" lon="5.72416">
        <ele>623.7</ele>
        <time>2015-04-29T09:39:18Z</time>
      </trkpt>
      <trkpt lat="43.42596" lon="5.72463">
        <ele>622.4</ele>
        <time>2015-04-29T09:40:06Z</time>
      </trkpt>
      <trkpt lat="43.42596" lon="5.72487">
        <ele>624</ele>
        <time>2015-04-29T09:40:23Z</time>
      </trkpt>
      <trkpt lat="43.42596" lon="5.72489">
        <ele>624.2</ele>
        <time>2015-04-29T09:40:24Z</time>
      </trkpt>
      <trkpt lat="43.42592" lon="5.72534">
        <ele>622</ele>
        <time>2015-04-29T09:40:52Z</time>
      </trkpt>
      <trkpt lat="43.42592" lon="5.72558">
        <ele>617.7</ele>
        <time>2015-04-29T09:41:08Z</time>
      </trkpt>
      <trkpt lat="43.42599" lon="5.7258">
        <ele>614.7</ele>
        <time>2015-04-29T09:41:26Z</time>
      </trkpt>
      <trkpt lat="43.426" lon="5.72581">
        <ele>614.4</ele>
        <time>2015-04-29T09:41:27Z</time>
      </trkpt>
      <trkpt lat="43.42606" lon="5.72627">
        <ele>611.7</ele>
        <time>2015-04-29T09:42:05Z</time>
      </trkpt>
      <trkpt lat="43.42612" lon="5.7265">
        <ele>610.9</ele>
        <time>2015-04-29T09:42:24Z</time>
      </trkpt>
      <trkpt lat="43.42618" lon="5.72672">
        <ele>607</ele>
        <time>2015-04-29T09:42:42Z</time>
      </trkpt>
      <trkpt lat="43.42619" lon="5.72674">
        <ele>606.9</ele>
        <time>2015-04-29T09:42:43Z</time>
      </trkpt>
      <trkpt lat="43.4263" lon="5.72716">
        <ele>604.7</ele>
        <time>2015-04-29T09:43:13Z</time>
      </trkpt>
      <trkpt lat="43.42633" lon="5.72739">
        <ele>605.7</ele>
        <time>2015-04-29T09:43:27Z</time>
      </trkpt>
      <trkpt lat="43.42634" lon="5.72764">
        <ele>606.5</ele>
        <time>2015-04-29T09:43:43Z</time>
      </trkpt>
      <trkpt lat="43.42634" lon="5.72765">
        <ele>606.9</ele>
        <time>2015-04-29T09:43:44Z</time>
      </trkpt>
      <trkpt lat="43.42623" lon="5.72808">
        <ele>601.9</ele>
        <time>2015-04-29T09:44:19Z</time>
      </trkpt>
      <trkpt lat="43.4261" lon="5.72822">
        <ele>596.4</ele>
        <time>2015-04-29T09:44:36Z</time>
      </trkpt>
      <trkpt lat="43.42596" lon="5.72835">
        <ele>594.2</ele>
        <time>2015-04-29T09:44:53Z</time>
      </trkpt>
      <trkpt lat="43.42595" lon="5.72836">
        <ele>594</ele>
        <time>2015-04-29T09:44:54Z</time>
      </trkpt>
      <trkpt lat="43.42566" lon="5.72862">
        <ele>592.7</ele>
        <time>2015-04-29T09:45:25Z</time>
      </trkpt>
      <trkpt lat="43.42551" lon="5.72874">
        <ele>591.7</ele>
        <time>2015-04-29T09:45:40Z</time>
      </trkpt>
      <trkpt lat="43.42536" lon="5.72885">
        <ele>591.2</ele>
        <time>2015-04-29T09:45:55Z</time>
      </trkpt>
      <trkpt lat="43.42535" lon="5.72886">
        <ele>590.9</ele>
        <time>2015-04-29T09:45:56Z</time>
      </trkpt>
      <trkpt lat="43.42514" lon="5.72922">
        <ele>590.4</ele>
        <time>2015-04-29T09:46:31Z</time>
      </trkpt>
      <trkpt lat="43.42529" lon="5.72934">
        <ele>588.7</ele>
        <time>2015-04-29T09:47:02Z</time>
      </trkpt>
      <trkpt lat="43.4253" lon="5.72934">
        <ele>588.9</ele>
        <time>2015-04-29T09:47:03Z</time>
      </trkpt>
      <trkpt lat="43.42547" lon="5.72942">
        <ele>584.2</ele>
        <time>2015-04-29T09:49:01Z</time>
      </trkpt>
      <trkpt lat="43.42571" lon="5.72973">
        <ele>583.2</ele>
        <time>2015-04-29T09:49:31Z</time>
      </trkpt>
      <trkpt lat="43.42584" lon="5.7299">
        <ele>580.4</ele>
        <time>2015-04-29T09:50:11Z</time>
      </trkpt>
      <trkpt lat="43.42584" lon="5.72991">
        <ele>580.4</ele>
        <time>2015-04-29T09:50:12Z</time>
      </trkpt>
      <trkpt lat="43.42602" lon="5.73032">
        <ele>572</ele>
        <time>2015-04-29T09:50:47Z</time>
      </trkpt>
      <trkpt lat="43.42615" lon="5.73048">
        <ele>569.5</ele>
        <time>2015-04-29T09:51:07Z</time>
      </trkpt>
      <trkpt lat="43.42631" lon="5.73039">
        <ele>573</ele>
        <time>2015-04-29T09:51:24Z</time>
      </trkpt>
      <trkpt lat="43.42632" lon="5.73038">
        <ele>573.2</ele>
        <time>2015-04-29T09:51:25Z</time>
      </trkpt>
      <trkpt lat="43.42664" lon="5.73023">
        <ele>572</ele>
        <time>2015-04-29T09:53:18Z</time>
      </trkpt>
      <trkpt lat="43.42665" lon="5.73022">
        <ele>572</ele>
        <time>2015-04-29T09:53:19Z</time>
      </trkpt>
      <trkpt lat="43.42698" lon="5.73013">
        <ele>567.7</ele>
        <time>2015-04-29T09:53:49Z</time>
      </trkpt>
      <trkpt lat="43.42714" lon="5.73021">
        <ele>567.2</ele>
        <time>2015-04-29T09:54:04Z</time>
      </trkpt>
      <trkpt lat="43.4273" lon="5.73034">
        <ele>568.7</ele>
        <time>2015-04-29T09:54:17Z</time>
      </trkpt>
      <trkpt lat="43.42744" lon="5.73048">
        <ele>567.7</ele>
        <time>2015-04-29T09:54:31Z</time>
      </trkpt>
      <trkpt lat="43.42745" lon="5.73048">
        <ele>567.5</ele>
        <time>2015-04-29T09:54:32Z</time>
      </trkpt>
      <trkpt lat="43.42773" lon="5.73036">
        <ele>562.2</ele>
        <time>2015-04-29T09:55:03Z</time>
      </trkpt>
      <trkpt lat="43.42778" lon="5.73014">
        <ele>559</ele>
        <time>2015-04-29T09:55:18Z</time>
      </trkpt>
      <trkpt lat="43.42787" lon="5.72995">
        <ele>556.9</ele>
        <time>2015-04-29T09:55:32Z</time>
      </trkpt>
      <trkpt lat="43.42788" lon="5.72993">
        <ele>556.7</ele>
        <time>2015-04-29T09:55:33Z</time>
      </trkpt>
      <trkpt lat="43.42812" lon="5.72962">
        <ele>552.4</ele>
        <time>2015-04-29T09:56:02Z</time>
      </trkpt>
      <trkpt lat="43.42827" lon="5.72948">
        <ele>550.9</ele>
        <time>2015-04-29T09:56:18Z</time>
      </trkpt>
      <trkpt lat="43.42843" lon="5.72941">
        <ele>551.4</ele>
        <time>2015-04-29T09:56:31Z</time>
      </trkpt>
      <trkpt lat="43.4286" lon="5.72931">
        <ele>550</ele>
        <time>2015-04-29T09:56:46Z</time>
      </trkpt>
      <trkpt lat="43.4286" lon="5.72931">
        <ele>549.7</ele>
        <time>2015-04-29T09:56:47Z</time>
      </trkpt>
      <trkpt lat="43.42856" lon="5.72895">
        <ele>554.5</ele>
        <time>2015-04-29T09:57:52Z</time>
      </trkpt>
      <trkpt lat="43.42856" lon="5.72895">
        <ele>554.9</ele>
        <time>2015-04-29T09:57:53Z</time>
      </trkpt>
      <trkpt lat="43.42845" lon="5.72851">
        <ele>558.7</ele>
        <time>2015-04-29T09:58:37Z</time>
      </trkpt>
      <trkpt lat="43.42843" lon="5.7283">
        <ele>558.9</ele>
        <time>2015-04-29T09:59:33Z</time>
      </trkpt>
      <trkpt lat="43.42843" lon="5.7283">
        <ele>558.9</ele>
        <time>2015-04-29T09:59:33Z</time>
      </trkpt>
      <trkpt lat="43.42868" lon="5.72826">
        <ele>561.7</ele>
        <time>2015-04-29T11:16:43Z</time>
      </trkpt>
      <trkpt lat="43.42868" lon="5.72825">
        <ele>561</ele>
        <time>2015-04-29T11:16:44Z</time>
      </trkpt>
      <trkpt lat="43.42854" lon="5.72844">
        <ele>564</ele>
        <time>2015-04-29T11:18:39Z</time>
      </trkpt>
      <trkpt lat="43.42851" lon="5.72866">
        <ele>557.5</ele>
        <time>2015-04-29T11:21:32Z</time>
      </trkpt>
      <trkpt lat="43.42866" lon="5.72908">
        <ele>548.2</ele>
        <time>2015-04-29T11:22:17Z</time>
      </trkpt>
      <trkpt lat="43.42879" lon="5.72925">
        <ele>548.2</ele>
        <time>2015-04-29T11:22:37Z</time>
      </trkpt>
      <trkpt lat="43.42879" lon="5.72926">
        <ele>548</ele>
        <time>2015-04-29T11:22:38Z</time>
      </trkpt>
      <trkpt lat="43.42914" lon="5.72918">
        <ele>548.9</ele>
        <time>2015-04-29T11:23:20Z</time>
      </trkpt>
      <trkpt lat="43.42931" lon="5.72916">
        <ele>547.2</ele>
        <time>2015-04-29T11:23:39Z</time>
      </trkpt>
      <trkpt lat="43.42932" lon="5.72916">
        <ele>547</ele>
        <time>2015-04-29T11:23:40Z</time>
      </trkpt>
      <trkpt lat="43.42957" lon="5.72942">
        <ele>543.7</ele>
        <time>2015-04-29T11:24:13Z</time>
      </trkpt>
      <trkpt lat="43.42956" lon="5.72966">
        <ele>542</ele>
        <time>2015-04-29T11:24:31Z</time>
      </trkpt>
      <trkpt lat="43.4296" lon="5.72989">
        <ele>541.7</ele>
        <time>2015-04-29T11:24:49Z</time>
      </trkpt>
      <trkpt lat="43.42961" lon="5.7299">
        <ele>541.9</ele>
        <time>2015-04-29T11:24:50Z</time>
      </trkpt>
      <trkpt lat="43.42994" lon="5.72982">
        <ele>541.5</ele>
        <time>2015-04-29T11:25:22Z</time>
      </trkpt>
      <trkpt lat="43.43011" lon="5.72978">
        <ele>543.2</ele>
        <time>2015-04-29T11:25:38Z</time>
      </trkpt>
      <trkpt lat="43.43026" lon="5.72992">
        <ele>545</ele>
        <time>2015-04-29T11:25:54Z</time>
      </trkpt>
      <trkpt lat="43.43026" lon="5.72993">
        <ele>545</ele>
        <time>2015-04-29T11:25:55Z</time>
      </trkpt>
      <trkpt lat="43.43037" lon="5.73036">
        <ele>542</ele>
        <time>2015-04-29T11:26:27Z</time>
      </trkpt>
      <trkpt lat="43.43037" lon="5.7306">
        <ele>541.2</ele>
        <time>2015-04-29T11:26:44Z</time>
      </trkpt>
      <trkpt lat="43.43045" lon="5.73081">
        <ele>541.2</ele>
        <time>2015-04-29T11:27:00Z</time>
      </trkpt>
      <trkpt lat="43.43046" lon="5.73083">
        <ele>541</ele>
        <time>2015-04-29T11:27:01Z</time>
      </trkpt>
      <trkpt lat="43.43059" lon="5.73125">
        <ele>539.9</ele>
        <time>2015-04-29T11:27:33Z</time>
      </trkpt>
      <trkpt lat="43.43061" lon="5.7315">
        <ele>537.2</ele>
        <time>2015-04-29T11:28:04Z</time>
      </trkpt>
      <trkpt lat="43.43061" lon="5.73151">
        <ele>537</ele>
        <time>2015-04-29T11:28:05Z</time>
      </trkpt>
      <trkpt lat="43.43085" lon="5.73183">
        <ele>539.2</ele>
        <time>2015-04-29T11:28:36Z</time>
      </trkpt>
      <trkpt lat="43.43092" lon="5.73205">
        <ele>534.7</ele>
        <time>2015-04-29T11:28:53Z</time>
      </trkpt>
      <trkpt lat="43.43099" lon="5.73228">
        <ele>534.5</ele>
        <time>2015-04-29T11:29:10Z</time>
      </trkpt>
      <trkpt lat="43.43099" lon="5.73229">
        <ele>534.7</ele>
        <time>2015-04-29T11:29:11Z</time>
      </trkpt>
      <trkpt lat="43.4312" lon="5.73246">
        <ele>528.9</ele>
        <time>2015-04-29T11:29:52Z</time>
      </trkpt>
      <trkpt lat="43.43132" lon="5.73228">
        <ele>529</ele>
        <time>2015-04-29T11:30:09Z</time>
      </trkpt>
      <trkpt lat="43.43149" lon="5.73229">
        <ele>536</ele>
        <time>2015-04-29T11:30:22Z</time>
      </trkpt>
      <trkpt lat="43.4315" lon="5.73229">
        <ele>536</ele>
        <time>2015-04-29T11:30:23Z</time>
      </trkpt>
      <trkpt lat="43.4318" lon="5.73251">
        <ele>534</ele>
        <time>2015-04-29T11:31:00Z</time>
      </trkpt>
      <trkpt lat="43.43197" lon="5.73258">
        <ele>531.7</ele>
        <time>2015-04-29T11:31:18Z</time>
      </trkpt>
      <trkpt lat="43.43214" lon="5.7326">
        <ele>530.9</ele>
        <time>2015-04-29T11:31:36Z</time>
      </trkpt>
      <trkpt lat="43.43215" lon="5.73261">
        <ele>530.7</ele>
        <time>2015-04-29T11:31:37Z</time>
      </trkpt>
      <trkpt lat="43.4325" lon="5.73262">
        <ele>523.7</ele>
        <time>2015-04-29T11:32:10Z</time>
      </trkpt>
      <trkpt lat="43.43267" lon="5.73262">
        <ele>525.5</ele>
        <time>2015-04-29T11:32:25Z</time>
      </trkpt>
      <trkpt lat="43.43285" lon="5.73264">
        <ele>527</ele>
        <time>2015-04-29T11:32:40Z</time>
      </trkpt>
      <trkpt lat="43.43286" lon="5.73264">
        <ele>527.2</ele>
        <time>2015-04-29T11:32:41Z</time>
      </trkpt>
      <trkpt lat="43.43316" lon="5.7328">
        <ele>530</ele>
        <time>2015-04-29T11:33:13Z</time>
      </trkpt>
      <trkpt lat="43.43333" lon="5.73288">
        <ele>538</ele>
        <time>2015-04-29T11:33:25Z</time>
      </trkpt>
      <trkpt lat="43.4335" lon="5.7329">
        <ele>541.4</ele>
        <time>2015-04-29T11:33:40Z</time>
      </trkpt>
      <trkpt lat="43.43366" lon="5.73282">
        <ele>526.9</ele>
        <time>2015-04-29T11:34:06Z</time>
      </trkpt>
      <trkpt lat="43.43367" lon="5.73282">
        <ele>526.5</ele>
        <time>2015-04-29T11:34:07Z</time>
      </trkpt>
      <trkpt lat="43.43402" lon="5.73285">
        <ele>528</ele>
        <time>2015-04-29T11:34:36Z</time>
      </trkpt>
      <trkpt lat="43.43418" lon="5.73291">
        <ele>531.2</ele>
        <time>2015-04-29T11:34:49Z</time>
      </trkpt>
      <trkpt lat="43.43434" lon="5.73297">
        <ele>533</ele>
        <time>2015-04-29T11:35:04Z</time>
      </trkpt>
      <trkpt lat="43.43449" lon="5.73311">
        <ele>525.2</ele>
        <time>2015-04-29T11:35:22Z</time>
      </trkpt>
      <trkpt lat="43.4345" lon="5.73313">
        <ele>525.2</ele>
        <time>2015-04-29T11:35:23Z</time>
      </trkpt>
      <trkpt lat="43.43464" lon="5.73353">
        <ele>529.5</ele>
        <time>2015-04-29T11:35:55Z</time>
      </trkpt>
      <trkpt lat="43.4346" lon="5.73376">
        <ele>530.7</ele>
        <time>2015-04-29T11:36:13Z</time>
      </trkpt>
      <trkpt lat="43.43457" lon="5.734">
        <ele>532.4</ele>
        <time>2015-04-29T11:36:30Z</time>
      </trkpt>
      <trkpt lat="43.43457" lon="5.73402">
        <ele>532.9</ele>
        <time>2015-04-29T11:36:31Z</time>
      </trkpt>
      <trkpt lat="43.43478" lon="5.73434">
        <ele>541</ele>
        <time>2015-04-29T11:36:57Z</time>
      </trkpt>
      <trkpt lat="43.43494" lon="5.73444">
        <ele>543.5</ele>
        <time>2015-04-29T11:37:14Z</time>
      </trkpt>
      <trkpt lat="43.43508" lon="5.73456">
        <ele>533.9</ele>
        <time>2015-04-29T11:37:31Z</time>
      </trkpt>
      <trkpt lat="43.4351" lon="5.73456">
        <ele>534.5</ele>
        <time>2015-04-29T11:37:32Z</time>
      </trkpt>
      <trkpt lat="43.43541" lon="5.73474">
        <ele>536.2</ele>
        <time>2015-04-29T11:38:02Z</time>
      </trkpt>
      <trkpt lat="43.43556" lon="5.73485">
        <ele>539.9</ele>
        <time>2015-04-29T11:38:16Z</time>
      </trkpt>
      <trkpt lat="43.43571" lon="5.73499">
        <ele>539.5</ele>
        <time>2015-04-29T11:38:33Z</time>
      </trkpt>
      <trkpt lat="43.43572" lon="5.735">
        <ele>539</ele>
        <time>2015-04-29T11:38:34Z</time>
      </trkpt>
      <trkpt lat="43.43603" lon="5.73519">
        <ele>540.9</ele>
        <time>2015-04-29T11:39:05Z</time>
      </trkpt>
      <trkpt lat="43.43619" lon="5.73528">
        <ele>538</ele>
        <time>2015-04-29T11:39:21Z</time>
      </trkpt>
      <trkpt lat="43.43634" lon="5.7354">
        <ele>539.2</ele>
        <time>2015-04-29T11:39:37Z</time>
      </trkpt>
      <trkpt lat="43.43635" lon="5.73541">
        <ele>539.5</ele>
        <time>2015-04-29T11:39:38Z</time>
      </trkpt>
      <trkpt lat="43.43646" lon="5.7358">
        <ele>535.5</ele>
        <time>2015-04-29T11:40:11Z</time>
      </trkpt>
      <trkpt lat="43.43639" lon="5.73601">
        <ele>534.9</ele>
        <time>2015-04-29T11:40:27Z</time>
      </trkpt>
      <trkpt lat="43.43632" lon="5.73624">
        <ele>531.7</ele>
        <time>2015-04-29T11:40:44Z</time>
      </trkpt>
      <trkpt lat="43.43631" lon="5.73625">
        <ele>532</ele>
        <time>2015-04-29T11:40:45Z</time>
      </trkpt>
      <trkpt lat="43.43622" lon="5.73671">
        <ele>530.7</ele>
        <time>2015-04-29T11:41:14Z</time>
      </trkpt>
      <trkpt lat="43.43611" lon="5.73688">
        <ele>531.5</ele>
        <time>2015-04-29T11:41:28Z</time>
      </trkpt>
      <trkpt lat="43.43595" lon="5.73693">
        <ele>529.7</ele>
        <time>2015-04-29T11:41:42Z</time>
      </trkpt>
      <trkpt lat="43.43578" lon="5.73693">
        <ele>525.5</ele>
        <time>2015-04-29T11:41:53Z</time>
      </trkpt>
      <trkpt lat="43.43577" lon="5.73693">
        <ele>525.2</ele>
        <time>2015-04-29T11:41:54Z</time>
      </trkpt>
      <trkpt lat="43.43567" lon="5.73729">
        <ele>531.9</ele>
        <time>2015-04-29T11:44:48Z</time>
      </trkpt>
      <trkpt lat="43.43568" lon="5.7373">
        <ele>532.2</ele>
        <time>2015-04-29T11:44:49Z</time>
      </trkpt>
      <trkpt lat="43.43588" lon="5.73765">
        <ele>524</ele>
        <time>2015-04-29T11:45:19Z</time>
      </trkpt>
      <trkpt lat="43.43591" lon="5.73788">
        <ele>523.5</ele>
        <time>2015-04-29T11:45:33Z</time>
      </trkpt>
      <trkpt lat="43.43605" lon="5.73802">
        <ele>529.4</ele>
        <time>2015-04-29T11:45:49Z</time>
      </trkpt>
      <trkpt lat="43.43607" lon="5.73802">
        <ele>530.2</ele>
        <time>2015-04-29T11:45:50Z</time>
      </trkpt>
      <trkpt lat="43.43639" lon="5.73787">
        <ele>531.4</ele>
        <time>2015-04-29T11:46:17Z</time>
      </trkpt>
      <trkpt lat="43.43656" lon="5.73789">
        <ele>526.9</ele>
        <time>2015-04-29T11:46:32Z</time>
      </trkpt>
      <trkpt lat="43.43673" lon="5.73794">
        <ele>529.4</ele>
        <time>2015-04-29T11:46:45Z</time>
      </trkpt>
      <trkpt lat="43.43691" lon="5.73799">
        <ele>525</ele>
        <time>2015-04-29T11:47:01Z</time>
      </trkpt>
      <trkpt lat="43.43692" lon="5.738">
        <ele>525.4</ele>
        <time>2015-04-29T11:47:02Z</time>
      </trkpt>
      <trkpt lat="43.43725" lon="5.73809">
        <ele>523.7</ele>
        <time>2015-04-29T11:47:32Z</time>
      </trkpt>
      <trkpt lat="43.43735" lon="5.73828">
        <ele>523.7</ele>
        <time>2015-04-29T11:47:47Z</time>
      </trkpt>
      <trkpt lat="43.43738" lon="5.73853">
        <ele>527.2</ele>
        <time>2015-04-29T11:48:01Z</time>
      </trkpt>
      <trkpt lat="43.43735" lon="5.73877">
        <ele>525.7</ele>
        <time>2015-04-29T11:48:17Z</time>
      </trkpt>
      <trkpt lat="43.43735" lon="5.73878">
        <ele>525</ele>
        <time>2015-04-29T11:48:18Z</time>
      </trkpt>
      <trkpt lat="43.43722" lon="5.7392">
        <ele>526.5</ele>
        <time>2015-04-29T11:48:57Z</time>
      </trkpt>
      <trkpt lat="43.43711" lon="5.7394">
        <ele>528</ele>
        <time>2015-04-29T11:49:13Z</time>
      </trkpt>
      <trkpt lat="43.43697" lon="5.73955">
        <ele>529.9</ele>
        <time>2015-04-29T11:49:30Z</time>
      </trkpt>
      <trkpt lat="43.43696" lon="5.73955">
        <ele>529.4</ele>
        <time>2015-04-29T11:49:31Z</time>
      </trkpt>
      <trkpt lat="43.43686" lon="5.73993">
        <ele>525.2</ele>
        <time>2015-04-29T11:50:09Z</time>
      </trkpt>
      <trkpt lat="43.43702" lon="5.73983">
        <ele>516.4</ele>
        <time>2015-04-29T11:50:47Z</time>
      </trkpt>
      <trkpt lat="43.43702" lon="5.73982">
        <ele>515.5</ele>
        <time>2015-04-29T11:50:48Z</time>
      </trkpt>
      <trkpt lat="43.43732" lon="5.73985">
        <ele>529</ele>
        <time>2015-04-29T11:51:01Z</time>
      </trkpt>
      <trkpt lat="43.43749" lon="5.73993">
        <ele>532</ele>
        <time>2015-04-29T11:51:13Z</time>
      </trkpt>
      <trkpt lat="43.43766" lon="5.73986">
        <ele>528</ele>
        <time>2015-04-29T11:51:35Z</time>
      </trkpt>
      <trkpt lat="43.43783" lon="5.73987">
        <ele>530</ele>
        <time>2015-04-29T11:51:45Z</time>
      </trkpt>
      <trkpt lat="43.43799" lon="5.73979">
        <ele>532.5</ele>
        <time>2015-04-29T11:51:57Z</time>
      </trkpt>
      <trkpt lat="43.43801" lon="5.73978">
        <ele>533.4</ele>
        <time>2015-04-29T11:51:58Z</time>
      </trkpt>
      <trkpt lat="43.43825" lon="5.73949">
        <ele>527.9</ele>
        <time>2015-04-29T11:52:29Z</time>
      </trkpt>
      <trkpt lat="43.43841" lon="5.73937">
        <ele>522.2</ele>
        <time>2015-04-29T11:52:47Z</time>
      </trkpt>
      <trkpt lat="43.43856" lon="5.7393">
        <ele>525.7</ele>
        <time>2015-04-29T11:52:59Z</time>
      </trkpt>
      <trkpt lat="43.43858" lon="5.7393">
        <ele>527</ele>
        <time>2015-04-29T11:53:00Z</time>
      </trkpt>
      <trkpt lat="43.43889" lon="5.73915">
        <ele>520.4</ele>
        <time>2015-04-29T11:53:29Z</time>
      </trkpt>
      <trkpt lat="43.43906" lon="5.73913">
        <ele>521.4</ele>
        <time>2015-04-29T11:53:45Z</time>
      </trkpt>
      <trkpt lat="43.43924" lon="5.73915">
        <ele>524</ele>
        <time>2015-04-29T11:54:00Z</time>
      </trkpt>
      <trkpt lat="43.43925" lon="5.73915">
        <ele>524.5</ele>
        <time>2015-04-29T11:54:01Z</time>
      </trkpt>
      <trkpt lat="43.43958" lon="5.73927">
        <ele>523.2</ele>
        <time>2015-04-29T11:54:32Z</time>
      </trkpt>
      <trkpt lat="43.43975" lon="5.73932">
        <ele>525.5</ele>
        <time>2015-04-29T11:54:45Z</time>
      </trkpt>
      <trkpt lat="43.43991" lon="5.73941">
        <ele>527.7</ele>
        <time>2015-04-29T11:54:59Z</time>
      </trkpt>
      <trkpt lat="43.44005" lon="5.73955">
        <ele>526.2</ele>
        <time>2015-04-29T11:55:15Z</time>
      </trkpt>
      <trkpt lat="43.44006" lon="5.73956">
        <ele>526</ele>
        <time>2015-04-29T11:55:16Z</time>
      </trkpt>
      <trkpt lat="43.4402" lon="5.73998">
        <ele>512</ele>
        <time>2015-04-29T11:55:49Z</time>
      </trkpt>
      <trkpt lat="43.44025" lon="5.74022">
        <ele>514.7</ele>
        <time>2015-04-29T11:56:04Z</time>
      </trkpt>
      <trkpt lat="43.44023" lon="5.74046">
        <ele>513.2</ele>
        <time>2015-04-29T11:56:20Z</time>
      </trkpt>
      <trkpt lat="43.44023" lon="5.74048">
        <ele>512.2</ele>
        <time>2015-04-29T11:56:21Z</time>
      </trkpt>
      <trkpt lat="43.44021" lon="5.74094">
        <ele>511</ele>
        <time>2015-04-29T11:56:52Z</time>
      </trkpt>
      <trkpt lat="43.4402" lon="5.74118">
        <ele>510</ele>
        <time>2015-04-29T11:57:07Z</time>
      </trkpt>
      <trkpt lat="43.44025" lon="5.74141">
        <ele>506.1</ele>
        <time>2015-04-29T11:57:23Z</time>
      </trkpt>
      <trkpt lat="43.44026" lon="5.74142">
        <ele>506.5</ele>
        <time>2015-04-29T11:57:24Z</time>
      </trkpt>
      <trkpt lat="43.44057" lon="5.74154">
        <ele>503.2</ele>
        <time>2015-04-29T11:57:55Z</time>
      </trkpt>
      <trkpt lat="43.44075" lon="5.74154">
        <ele>505.6</ele>
        <time>2015-04-29T11:58:09Z</time>
      </trkpt>
      <trkpt lat="43.44088" lon="5.74169">
        <ele>506</ele>
        <time>2015-04-29T11:58:24Z</time>
      </trkpt>
      <trkpt lat="43.44088" lon="5.74171">
        <ele>505.6</ele>
        <time>2015-04-29T11:58:25Z</time>
      </trkpt>
      <trkpt lat="43.44108" lon="5.74208">
        <ele>500.8</ele>
        <time>2015-04-29T11:58:55Z</time>
      </trkpt>
      <trkpt lat="43.44118" lon="5.74229">
        <ele>497.2</ele>
        <time>2015-04-29T11:59:12Z</time>
      </trkpt>
      <trkpt lat="43.4412" lon="5.74253">
        <ele>494.1</ele>
        <time>2015-04-29T11:59:27Z</time>
      </trkpt>
      <trkpt lat="43.4412" lon="5.74254">
        <ele>494.2</ele>
        <time>2015-04-29T11:59:28Z</time>
      </trkpt>
      <trkpt lat="43.44128" lon="5.74298">
        <ele>491.5</ele>
        <time>2015-04-29T11:59:57Z</time>
      </trkpt>
      <trkpt lat="43.44145" lon="5.74299">
        <ele>491.7</ele>
        <time>2015-04-29T12:00:19Z</time>
      </trkpt>
      <trkpt lat="43.44143" lon="5.74275">
        <ele>488.7</ele>
        <time>2015-04-29T12:00:35Z</time>
      </trkpt>
      <trkpt lat="43.44142" lon="5.74273">
        <ele>488.3</ele>
        <time>2015-04-29T12:00:36Z</time>
      </trkpt>
      <trkpt lat="43.44139" lon="5.74228">
        <ele>492.7</ele>
        <time>2015-04-29T12:01:06Z</time>
      </trkpt>
      <trkpt lat="43.4413" lon="5.74208">
        <ele>484.1</ele>
        <time>2015-04-29T12:01:19Z</time>
      </trkpt>
      <trkpt lat="43.44131" lon="5.74184">
        <ele>485.6</ele>
        <time>2015-04-29T12:01:35Z</time>
      </trkpt>
      <trkpt lat="43.44134" lon="5.74161">
        <ele>484.5</ele>
        <time>2015-04-29T12:01:53Z</time>
      </trkpt>
      <trkpt lat="43.44134" lon="5.74159">
        <ele>484.1</ele>
        <time>2015-04-29T12:01:54Z</time>
      </trkpt>
      <trkpt lat="43.4414" lon="5.74114">
        <ele>482.2</ele>
        <time>2015-04-29T12:02:26Z</time>
      </trkpt>
      <trkpt lat="43.44141" lon="5.7409">
        <ele>487.5</ele>
        <time>2015-04-29T12:02:43Z</time>
      </trkpt>
      <trkpt lat="43.44126" lon="5.74077">
        <ele>477.2</ele>
        <time>2015-04-29T12:02:56Z</time>
      </trkpt>
      <trkpt lat="43.44125" lon="5.74076">
        <ele>476.8</ele>
        <time>2015-04-29T12:02:57Z</time>
      </trkpt>
      <trkpt lat="43.44122" lon="5.74031">
        <ele>475.7</ele>
        <time>2015-04-29T12:03:29Z</time>
      </trkpt>
      <trkpt lat="43.44131" lon="5.74011">
        <ele>471.5</ele>
        <time>2015-04-29T12:03:47Z</time>
      </trkpt>
      <trkpt lat="43.44136" lon="5.73988">
        <ele>469.7</ele>
        <time>2015-04-29T12:04:05Z</time>
      </trkpt>
      <trkpt lat="43.44137" lon="5.73987">
        <ele>469.7</ele>
        <time>2015-04-29T12:04:06Z</time>
      </trkpt>
      <trkpt lat="43.44141" lon="5.73941">
        <ele>466.7</ele>
        <time>2015-04-29T12:04:37Z</time>
      </trkpt>
      <trkpt lat="43.44137" lon="5.73917">
        <ele>467.2</ele>
        <time>2015-04-29T12:04:51Z</time>
      </trkpt>
      <trkpt lat="43.44133" lon="5.73894">
        <ele>463.3</ele>
        <time>2015-04-29T12:05:11Z</time>
      </trkpt>
      <trkpt lat="43.44133" lon="5.73892">
        <ele>463.3</ele>
        <time>2015-04-29T12:05:12Z</time>
      </trkpt>
      <trkpt lat="43.44138" lon="5.73848">
        <ele>458.7</ele>
        <time>2015-04-29T12:05:41Z</time>
      </trkpt>
      <trkpt lat="43.44143" lon="5.73825">
        <ele>456</ele>
        <time>2015-04-29T12:05:57Z</time>
      </trkpt>
      <trkpt lat="43.44143" lon="5.73801">
        <ele>455.1</ele>
        <time>2015-04-29T12:06:11Z</time>
      </trkpt>
      <trkpt lat="43.44139" lon="5.73777">
        <ele>453.2</ele>
        <time>2015-04-29T12:06:29Z</time>
      </trkpt>
      <trkpt lat="43.44139" lon="5.73776">
        <ele>453.2</ele>
        <time>2015-04-29T12:06:30Z</time>
      </trkpt>
      <trkpt lat="43.44167" lon="5.73788">
        <ele>453.2</ele>
        <time>2015-04-29T12:07:18Z</time>
      </trkpt>
      <trkpt lat="43.44178" lon="5.73808">
        <ele>450</ele>
        <time>2015-04-29T12:07:34Z</time>
      </trkpt>
      <trkpt lat="43.44179" lon="5.73809">
        <ele>450.2</ele>
        <time>2015-04-29T12:07:35Z</time>
      </trkpt>
      <trkpt lat="43.44195" lon="5.7385">
        <ele>446</ele>
        <time>2015-04-29T12:08:03Z</time>
      </trkpt>
      <trkpt lat="43.44205" lon="5.7387">
        <ele>442.3</ele>
        <time>2015-04-29T12:08:19Z</time>
      </trkpt>
      <trkpt lat="43.44216" lon="5.73889">
        <ele>444.8</ele>
        <time>2015-04-29T12:08:35Z</time>
      </trkpt>
      <trkpt lat="43.44217" lon="5.7389">
        <ele>445.2</ele>
        <time>2015-04-29T12:08:36Z</time>
      </trkpt>
      <trkpt lat="43.44237" lon="5.73926">
        <ele>437.3</ele>
        <time>2015-04-29T12:09:12Z</time>
      </trkpt>
      <trkpt lat="43.44255" lon="5.73926">
        <ele>441.7</ele>
        <time>2015-04-29T12:09:29Z</time>
      </trkpt>
      <trkpt lat="43.44271" lon="5.73918">
        <ele>438.7</ele>
        <time>2015-04-29T12:09:46Z</time>
      </trkpt>
      <trkpt lat="43.44272" lon="5.73918">
        <ele>438.8</ele>
        <time>2015-04-29T12:09:47Z</time>
      </trkpt>
      <trkpt lat="43.443" lon="5.73894">
        <ele>435.3</ele>
        <time>2015-04-29T12:10:20Z</time>
      </trkpt>
      <trkpt lat="43.44316" lon="5.73882">
        <ele>431.3</ele>
        <time>2015-04-29T12:10:37Z</time>
      </trkpt>
      <trkpt lat="43.44333" lon="5.7388">
        <ele>429</ele>
        <time>2015-04-29T12:10:52Z</time>
      </trkpt>
      <trkpt lat="43.44334" lon="5.7388">
        <ele>429.8</ele>
        <time>2015-04-29T12:10:53Z</time>
      </trkpt>
      <trkpt lat="43.44368" lon="5.73888">
        <ele>427.2</ele>
        <time>2015-04-29T12:11:22Z</time>
      </trkpt>
      <trkpt lat="43.44382" lon="5.73874">
        <ele>424.8</ele>
        <time>2015-04-29T12:11:41Z</time>
      </trkpt>
      <trkpt lat="43.44392" lon="5.73854">
        <ele>423.2</ele>
        <time>2015-04-29T12:11:58Z</time>
      </trkpt>
      <trkpt lat="43.44393" lon="5.73853">
        <ele>423.1</ele>
        <time>2015-04-29T12:11:59Z</time>
      </trkpt>
      <trkpt lat="43.44418" lon="5.73821">
        <ele>419.1</ele>
        <time>2015-04-29T12:12:29Z</time>
      </trkpt>
      <trkpt lat="43.44424" lon="5.73799">
        <ele>416.8</ele>
        <time>2015-04-29T12:12:46Z</time>
      </trkpt>
      <trkpt lat="43.44436" lon="5.7378">
        <ele>415.3</ele>
        <time>2015-04-29T12:13:02Z</time>
      </trkpt>
      <trkpt lat="43.44437" lon="5.73779">
        <ele>415.2</ele>
        <time>2015-04-29T12:13:03Z</time>
      </trkpt>
      <trkpt lat="43.44464" lon="5.73752">
        <ele>410.5</ele>
        <time>2015-04-29T12:13:34Z</time>
      </trkpt>
      <trkpt lat="43.44478" lon="5.73737">
        <ele>408.7</ele>
        <time>2015-04-29T12:13:52Z</time>
      </trkpt>
      <trkpt lat="43.44493" lon="5.73725">
        <ele>409.6</ele>
        <time>2015-04-29T12:14:07Z</time>
      </trkpt>
      <trkpt lat="43.44495" lon="5.73724">
        <ele>409.7</ele>
        <time>2015-04-29T12:14:08Z</time>
      </trkpt>
      <trkpt lat="43.44527" lon="5.73711">
        <ele>410.8</ele>
        <time>2015-04-29T12:14:35Z</time>
      </trkpt>
      <trkpt lat="43.44542" lon="5.73701">
        <ele>401.5</ele>
        <time>2015-04-29T12:14:53Z</time>
      </trkpt>
      <trkpt lat="43.44556" lon="5.73689">
        <ele>397.8</ele>
        <time>2015-04-29T12:15:08Z</time>
      </trkpt>
      <trkpt lat="43.44559" lon="5.73689">
        <ele>400.1</ele>
        <time>2015-04-29T12:15:09Z</time>
      </trkpt>
      <trkpt lat="43.44585" lon="5.73667">
        <ele>400.3</ele>
        <time>2015-04-29T12:15:34Z</time>
      </trkpt>
      <trkpt lat="43.44597" lon="5.73649">
        <ele>398.8</ele>
        <time>2015-04-29T12:15:49Z</time>
      </trkpt>
      <trkpt lat="43.44608" lon="5.7363">
        <ele>398.1</ele>
        <time>2015-04-29T12:16:04Z</time>
      </trkpt>
      <trkpt lat="43.4462" lon="5.73612">
        <ele>396.7</ele>
        <time>2015-04-29T12:16:19Z</time>
      </trkpt>
      <trkpt lat="43.44621" lon="5.7361">
        <ele>396.7</ele>
        <time>2015-04-29T12:16:20Z</time>
      </trkpt>
      <trkpt lat="43.4464" lon="5.73572">
        <ele>393.7</ele>
        <time>2015-04-29T12:16:47Z</time>
      </trkpt>
      <trkpt lat="43.4465" lon="5.73553">
        <ele>391.7</ele>
        <time>2015-04-29T12:17:03Z</time>
      </trkpt>
      <trkpt lat="43.44664" lon="5.73537">
        <ele>396</ele>
        <time>2015-04-29T12:17:56Z</time>
      </trkpt>
      <trkpt lat="43.44664" lon="5.73536">
        <ele>395.7</ele>
        <time>2015-04-29T12:17:57Z</time>
      </trkpt>
      <trkpt lat="43.44686" lon="5.73501">
        <ele>389.1</ele>
        <time>2015-04-29T12:18:28Z</time>
      </trkpt>
      <trkpt lat="43.44698" lon="5.73484">
        <ele>388.1</ele>
        <time>2015-04-29T12:18:42Z</time>
      </trkpt>
      <trkpt lat="43.44708" lon="5.73466">
        <ele>385</ele>
        <time>2015-04-29T12:18:56Z</time>
      </trkpt>
      <trkpt lat="43.44719" lon="5.73448">
        <ele>386.2</ele>
        <time>2015-04-29T12:19:09Z</time>
      </trkpt>
      <trkpt lat="43.4472" lon="5.73446">
        <ele>386.5</ele>
        <time>2015-04-29T12:19:10Z</time>
      </trkpt>
      <trkpt lat="43.4474" lon="5.73408">
        <ele>380.3</ele>
        <time>2015-04-29T12:19:41Z</time>
      </trkpt>
      <trkpt lat="43.44751" lon="5.73389">
        <ele>378.2</ele>
        <time>2015-04-29T12:19:56Z</time>
      </trkpt>
      <trkpt lat="43.44762" lon="5.73371">
        <ele>379.8</ele>
        <time>2015-04-29T12:20:09Z</time>
      </trkpt>
      <trkpt lat="43.44774" lon="5.73354">
        <ele>377.5</ele>
        <time>2015-04-29T12:20:24Z</time>
      </trkpt>
      <trkpt lat="43.44775" lon="5.73353">
        <ele>378.1</ele>
        <time>2015-04-29T12:20:25Z</time>
      </trkpt>
      <trkpt lat="43.44804" lon="5.73335">
        <ele>374.3</ele>
        <time>2015-04-29T12:20:57Z</time>
      </trkpt>
      <trkpt lat="43.44821" lon="5.73337">
        <ele>372.3</ele>
        <time>2015-04-29T12:21:10Z</time>
      </trkpt>
      <trkpt lat="43.44838" lon="5.73337">
        <ele>373.7</ele>
        <time>2015-04-29T12:21:24Z</time>
      </trkpt>
      <trkpt lat="43.44854" lon="5.73328">
        <ele>377.2</ele>
        <time>2015-04-29T12:21:39Z</time>
      </trkpt>
      <trkpt lat="43.44854" lon="5.73328">
        <ele>377.3</ele>
        <time>2015-04-29T12:21:40Z</time>
      </trkpt>
      <trkpt lat="43.44871" lon="5.73288">
        <ele>372.8</ele>
        <time>2015-04-29T12:22:10Z</time>
      </trkpt>
      <trkpt lat="43.44867" lon="5.73265">
        <ele>371</ele>
        <time>2015-04-29T12:22:25Z</time>
      </trkpt>
      <trkpt lat="43.44854" lon="5.73249">
        <ele>368.7</ele>
        <time>2015-04-29T12:22:40Z</time>
      </trkpt>
      <trkpt lat="43.44853" lon="5.73248">
        <ele>368.7</ele>
        <time>2015-04-29T12:22:41Z</time>
      </trkpt>
      <trkpt lat="43.44821" lon="5.73233">
        <ele>368.2</ele>
        <time>2015-04-29T12:23:13Z</time>
      </trkpt>
      <trkpt lat="43.44805" lon="5.73245">
        <ele>363.3</ele>
        <time>2015-04-29T12:28:34Z</time>
      </trkpt>
      <trkpt lat="43.44804" lon="5.73246">
        <ele>363</ele>
        <time>2015-04-29T12:28:35Z</time>
      </trkpt>
      <trkpt lat="43.44777" lon="5.73271">
        <ele>355.5</ele>
        <time>2015-04-29T12:29:10Z</time>
      </trkpt>
      <trkpt lat="43.44764" lon="5.73288">
        <ele>355.5</ele>
        <time>2015-04-29T12:29:27Z</time>
      </trkpt>
      <trkpt lat="43.44752" lon="5.73306">
        <ele>356.3</ele>
        <time>2015-04-29T12:29:42Z</time>
      </trkpt>
      <trkpt lat="43.44751" lon="5.73307">
        <ele>356.3</ele>
        <time>2015-04-29T12:29:43Z</time>
      </trkpt>
      <trkpt lat="43.44724" lon="5.73332">
        <ele>356.2</ele>
        <time>2015-04-29T12:30:09Z</time>
      </trkpt>
      <trkpt lat="43.44709" lon="5.73347">
        <ele>353.8</ele>
        <time>2015-04-29T12:30:27Z</time>
      </trkpt>
      <trkpt lat="43.44696" lon="5.73362">
        <ele>354.7</ele>
        <time>2015-04-29T12:30:41Z</time>
      </trkpt>
      <trkpt lat="43.4468" lon="5.73371">
        <ele>354.2</ele>
        <time>2015-04-29T12:31:01Z</time>
      </trkpt>
      <trkpt lat="43.44679" lon="5.73371">
        <ele>354.7</ele>
        <time>2015-04-29T12:31:02Z</time>
      </trkpt>
      <trkpt lat="43.44648" lon="5.73387">
        <ele>351.1</ele>
        <time>2015-04-29T12:31:31Z</time>
      </trkpt>
      <trkpt lat="43.44633" lon="5.73399">
        <ele>353.7</ele>
        <time>2015-04-29T12:31:45Z</time>
      </trkpt>
      <trkpt lat="43.44618" lon="5.73411">
        <ele>352.7</ele>
        <time>2015-04-29T12:31:59Z</time>
      </trkpt>
      <trkpt lat="43.446" lon="5.73415">
        <ele>349.7</ele>
        <time>2015-04-29T12:32:17Z</time>
      </trkpt>
      <trkpt lat="43.44599" lon="5.73414">
        <ele>349.7</ele>
        <time>2015-04-29T12:32:18Z</time>
      </trkpt>
      <trkpt lat="43.44576" lon="5.73382">
        <ele>350.7</ele>
        <time>2015-04-29T12:32:44Z</time>
      </trkpt>
      <trkpt lat="43.44571" lon="5.73359">
        <ele>351.8</ele>
        <time>2015-04-29T12:32:58Z</time>
      </trkpt>
      <trkpt lat="43.44583" lon="5.73341">
        <ele>349.6</ele>
        <time>2015-04-29T12:33:14Z</time>
      </trkpt>
      <trkpt lat="43.44594" lon="5.73323">
        <ele>347.2</ele>
        <time>2015-04-29T12:33:29Z</time>
      </trkpt>
      <trkpt lat="43.44595" lon="5.73322">
        <ele>347.2</ele>
        <time>2015-04-29T12:33:30Z</time>
      </trkpt>
      <trkpt lat="43.44611" lon="5.73284">
        <ele>344.6</ele>
        <time>2015-04-29T12:33:55Z</time>
      </trkpt>
      <trkpt lat="43.44616" lon="5.73261">
        <ele>346.5</ele>
        <time>2015-04-29T12:34:07Z</time>
      </trkpt>
      <trkpt lat="43.44622" lon="5.73238">
        <ele>345.8</ele>
        <time>2015-04-29T12:34:21Z</time>
      </trkpt>
      <trkpt lat="43.44631" lon="5.73218">
        <ele>340.7</ele>
        <time>2015-04-29T12:34:38Z</time>
      </trkpt>
      <trkpt lat="43.44631" lon="5.73217">
        <ele>340.3</ele>
        <time>2015-04-29T12:34:39Z</time>
      </trkpt>
      <trkpt lat="43.44635" lon="5.73171">
        <ele>337.5</ele>
        <time>2015-04-29T12:35:09Z</time>
      </trkpt>
      <trkpt lat="43.44619" lon="5.73161">
        <ele>334.2</ele>
        <time>2015-04-29T12:38:39Z</time>
      </trkpt>
      <trkpt lat="43.44618" lon="5.73161">
        <ele>334.1</ele>
        <time>2015-04-29T12:38:40Z</time>
      </trkpt>
      <trkpt lat="43.44589" lon="5.73139">
        <ele>333.2</ele>
        <time>2015-04-29T12:39:10Z</time>
      </trkpt>
      <trkpt lat="43.44574" lon="5.73124">
        <ele>334.6</ele>
        <time>2015-04-29T12:39:26Z</time>
      </trkpt>
      <trkpt lat="43.44563" lon="5.73107">
        <ele>335.1</ele>
        <time>2015-04-29T12:39:40Z</time>
      </trkpt>
      <trkpt lat="43.44562" lon="5.73106">
        <ele>335.2</ele>
        <time>2015-04-29T12:39:41Z</time>
      </trkpt>
      <trkpt lat="43.4454" lon="5.7307">
        <ele>335.2</ele>
        <time>2015-04-29T12:40:10Z</time>
      </trkpt>
      <trkpt lat="43.44532" lon="5.73049">
        <ele>334.5</ele>
        <time>2015-04-29T12:40:25Z</time>
      </trkpt>
      <trkpt lat="43.44525" lon="5.73028">
        <ele>333.1</ele>
        <time>2015-04-29T12:40:41Z</time>
      </trkpt>
      <trkpt lat="43.44525" lon="5.73026">
        <ele>333.1</ele>
        <time>2015-04-29T12:40:42Z</time>
      </trkpt>
      <trkpt lat="43.44521" lon="5.7298">
        <ele>335.5</ele>
        <time>2015-04-29T12:41:11Z</time>
      </trkpt>
      <trkpt lat="43.44523" lon="5.72956">
        <ele>333.7</ele>
        <time>2015-04-29T12:41:35Z</time>
      </trkpt>
      <trkpt lat="43.44525" lon="5.72933">
        <ele>333.2</ele>
        <time>2015-04-29T12:41:50Z</time>
      </trkpt>
      <trkpt lat="43.44525" lon="5.72931">
        <ele>333.2</ele>
        <time>2015-04-29T12:41:51Z</time>
      </trkpt>
      <trkpt lat="43.44531" lon="5.72886">
        <ele>334.8</ele>
        <time>2015-04-29T12:42:19Z</time>
      </trkpt>
      <trkpt lat="43.44532" lon="5.72862">
        <ele>331.6</ele>
        <time>2015-04-29T12:42:36Z</time>
      </trkpt>
      <trkpt lat="43.44536" lon="5.72837">
        <ele>331.2</ele>
        <time>2015-04-29T12:42:51Z</time>
      </trkpt>
      <trkpt lat="43.44536" lon="5.72836">
        <ele>331.3</ele>
        <time>2015-04-29T12:42:52Z</time>
      </trkpt>
      <trkpt lat="43.44539" lon="5.7279">
        <ele>333.1</ele>
        <time>2015-04-29T12:43:19Z</time>
      </trkpt>
      <trkpt lat="43.44536" lon="5.72767">
        <ele>332.6</ele>
        <time>2015-04-29T12:43:34Z</time>
      </trkpt>
      <trkpt lat="43.44532" lon="5.72743">
        <ele>333.3</ele>
        <time>2015-04-29T12:43:49Z</time>
      </trkpt>
      <trkpt lat="43.44526" lon="5.72721">
        <ele>333.5</ele>
        <time>2015-04-29T12:44:03Z</time>
      </trkpt>
      <trkpt lat="43.44525" lon="5.7272">
        <ele>333.6</ele>
        <time>2015-04-29T12:44:04Z</time>
      </trkpt>
      <trkpt lat="43.44508" lon="5.72681">
        <ele>333.7</ele>
        <time>2015-04-29T12:44:32Z</time>
      </trkpt>
      <trkpt lat="43.44496" lon="5.72663">
        <ele>333.1</ele>
        <time>2015-04-29T12:44:47Z</time>
      </trkpt>
      <trkpt lat="43.44483" lon="5.72646">
        <ele>333.7</ele>
        <time>2015-04-29T12:45:02Z</time>
      </trkpt>
      <trkpt lat="43.4447" lon="5.72631">
        <ele>334.6</ele>
        <time>2015-04-29T12:45:17Z</time>
      </trkpt>
      <trkpt lat="43.44469" lon="5.7263">
        <ele>334.6</ele>
        <time>2015-04-29T12:45:18Z</time>
      </trkpt>
      <trkpt lat="43.44438" lon="5.72609">
        <ele>336.5</ele>
        <time>2015-04-29T12:45:47Z</time>
      </trkpt>
      <trkpt lat="43.44421" lon="5.72603">
        <ele>334.1</ele>
        <time>2015-04-29T12:46:03Z</time>
      </trkpt>
      <trkpt lat="43.44404" lon="5.72598">
        <ele>335.2</ele>
        <time>2015-04-29T12:46:18Z</time>
      </trkpt>
      <trkpt lat="43.44403" lon="5.72598">
        <ele>334.7</ele>
        <time>2015-04-29T12:46:19Z</time>
      </trkpt>
      <trkpt lat="43.4437" lon="5.7259">
        <ele>336.1</ele>
        <time>2015-04-29T12:46:48Z</time>
      </trkpt>
      <trkpt lat="43.44352" lon="5.72591">
        <ele>333.3</ele>
        <time>2015-04-29T12:47:02Z</time>
      </trkpt>
      <trkpt lat="43.44335" lon="5.7259">
        <ele>334.3</ele>
        <time>2015-04-29T12:47:21Z</time>
      </trkpt>
      <trkpt lat="43.44334" lon="5.7259">
        <ele>334.3</ele>
        <time>2015-04-29T12:47:22Z</time>
      </trkpt>
      <trkpt lat="43.44301" lon="5.72578">
        <ele>332.5</ele>
        <time>2015-04-29T12:47:59Z</time>
      </trkpt>
      <trkpt lat="43.44284" lon="5.72574">
        <ele>335.8</ele>
        <time>2015-04-29T12:48:55Z</time>
      </trkpt>
      <trkpt lat="43.44283" lon="5.72574">
        <ele>336.1</ele>
        <time>2015-04-29T12:48:56Z</time>
      </trkpt>
      <trkpt lat="43.4425" lon="5.72569">
        <ele>336</ele>
        <time>2015-04-29T12:49:23Z</time>
      </trkpt>
      <trkpt lat="43.44233" lon="5.72566">
        <ele>335.2</ele>
        <time>2015-04-29T12:49:37Z</time>
      </trkpt>
      <trkpt lat="43.44216" lon="5.72564">
        <ele>334.2</ele>
        <time>2015-04-29T12:49:49Z</time>
      </trkpt>
      <trkpt lat="43.44199" lon="5.72565">
        <ele>334</ele>
        <time>2015-04-29T12:50:02Z</time>
      </trkpt>
      <trkpt lat="43.44197" lon="5.72566">
        <ele>334.3</ele>
        <time>2015-04-29T12:50:03Z</time>
      </trkpt>
      <trkpt lat="43.44166" lon="5.72567">
        <ele>337.1</ele>
        <time>2015-04-29T12:50:36Z</time>
      </trkpt>
      <trkpt lat="43.44149" lon="5.7256">
        <ele>335.7</ele>
        <time>2015-04-29T12:50:50Z</time>
      </trkpt>
      <trkpt lat="43.44132" lon="5.72555">
        <ele>334.7</ele>
        <time>2015-04-29T12:51:04Z</time>
      </trkpt>
      <trkpt lat="43.44131" lon="5.72555">
        <ele>335.1</ele>
        <time>2015-04-29T12:51:05Z</time>
      </trkpt>
      <trkpt lat="43.44098" lon="5.72545">
        <ele>336</ele>
        <time>2015-04-29T12:51:32Z</time>
      </trkpt>
      <trkpt lat="43.4408" lon="5.72542">
        <ele>334.5</ele>
        <time>2015-04-29T12:51:47Z</time>
      </trkpt>
      <trkpt lat="43.44063" lon="5.72538">
        <ele>332.7</ele>
        <time>2015-04-29T12:52:01Z</time>
      </trkpt>
      <trkpt lat="43.44046" lon="5.72534">
        <ele>332.7</ele>
        <time>2015-04-29T12:52:32Z</time>
      </trkpt>
      <trkpt lat="43.44045" lon="5.72534">
        <ele>332.7</ele>
        <time>2015-04-29T12:52:33Z</time>
      </trkpt>
      <trkpt lat="43.44013" lon="5.72525">
        <ele>338.8</ele>
        <time>2015-04-29T12:53:06Z</time>
      </trkpt>
      <trkpt lat="43.43995" lon="5.72519">
        <ele>336.5</ele>
        <time>2015-04-29T12:53:22Z</time>
      </trkpt>
      <trkpt lat="43.43979" lon="5.72511">
        <ele>337.1</ele>
        <time>2015-04-29T12:53:37Z</time>
      </trkpt>
      <trkpt lat="43.43978" lon="5.7251">
        <ele>337.2</ele>
        <time>2015-04-29T12:53:38Z</time>
      </trkpt>
      <trkpt lat="43.43949" lon="5.72489">
        <ele>334.2</ele>
        <time>2015-04-29T12:54:10Z</time>
      </trkpt>
      <trkpt lat="43.43934" lon="5.72476">
        <ele>334.7</ele>
        <time>2015-04-29T12:54:25Z</time>
      </trkpt>
      <trkpt lat="43.43918" lon="5.7247">
        <ele>335.3</ele>
        <time>2015-04-29T12:54:41Z</time>
      </trkpt>
      <trkpt lat="43.43917" lon="5.72469">
        <ele>335.3</ele>
        <time>2015-04-29T12:54:42Z</time>
      </trkpt>
      <trkpt lat="43.43892" lon="5.72441">
        <ele>336.5</ele>
        <time>2015-04-29T12:55:30Z</time>
      </trkpt>
      <trkpt lat="43.43877" lon="5.72428">
        <ele>336.6</ele>
        <time>2015-04-29T12:55:56Z</time>
      </trkpt>
      <trkpt lat="43.43876" lon="5.72427">
        <ele>336.5</ele>
        <time>2015-04-29T12:55:57Z</time>
      </trkpt>
      <trkpt lat="43.43851" lon="5.72396">
        <ele>335.5</ele>
        <time>2015-04-29T12:56:36Z</time>
      </trkpt>
      <trkpt lat="43.43838" lon="5.72379">
        <ele>336.7</ele>
        <time>2015-04-29T12:56:52Z</time>
      </trkpt>
      <trkpt lat="43.43824" lon="5.72363">
        <ele>334.5</ele>
        <time>2015-04-29T12:57:14Z</time>
      </trkpt>
      <trkpt lat="43.43823" lon="5.72362">
        <ele>334.3</ele>
        <time>2015-04-29T12:57:15Z</time>
      </trkpt>
      <trkpt lat="43.43815" lon="5.72341">
        <ele>333.8</ele>
        <time>2015-04-29T12:58:31Z</time>
      </trkpt>
      <trkpt lat="43.43786" lon="5.7232">
        <ele>330.7</ele>
        <time>2015-04-29T12:58:59Z</time>
      </trkpt>
      <trkpt lat="43.43778" lon="5.723">
        <ele>332.7</ele>
        <time>2015-04-29T12:59:16Z</time>
      </trkpt>
      <trkpt lat="43.43776" lon="5.72276">
        <ele>332.6</ele>
        <time>2015-04-29T12:59:34Z</time>
      </trkpt>
      <trkpt lat="43.43776" lon="5.72274">
        <ele>332.7</ele>
        <time>2015-04-29T12:59:35Z</time>
      </trkpt>
      <trkpt lat="43.43778" lon="5.72227">
        <ele>336.2</ele>
        <time>2015-04-29T13:00:14Z</time>
      </trkpt>
      <trkpt lat="43.43781" lon="5.72204">
        <ele>338.7</ele>
        <time>2015-04-29T13:00:31Z</time>
      </trkpt>
      <trkpt lat="43.43781" lon="5.7218">
        <ele>339.3</ele>
        <time>2015-04-29T13:00:45Z</time>
      </trkpt>
      <trkpt lat="43.43781" lon="5.72178">
        <ele>339.2</ele>
        <time>2015-04-29T13:00:46Z</time>
      </trkpt>
      <trkpt lat="43.43786" lon="5.72132">
        <ele>332.8</ele>
        <time>2015-04-29T13:01:22Z</time>
      </trkpt>
      <trkpt lat="43.43786" lon="5.72108">
        <ele>335.6</ele>
        <time>2015-04-29T13:01:39Z</time>
      </trkpt>
      <trkpt lat="43.43782" lon="5.72085">
        <ele>327.6</ele>
        <time>2015-04-29T13:02:00Z</time>
      </trkpt>
      <trkpt lat="43.43782" lon="5.72084">
        <ele>327.2</ele>
        <time>2015-04-29T13:02:01Z</time>
      </trkpt>
      <trkpt lat="43.43769" lon="5.7204">
        <ele>321.3</ele>
        <time>2015-04-29T13:02:34Z</time>
      </trkpt>
      <trkpt lat="43.43772" lon="5.72015">
        <ele>325.7</ele>
        <time>2015-04-29T13:02:46Z</time>
      </trkpt>
      <trkpt lat="43.43771" lon="5.71991">
        <ele>330.2</ele>
        <time>2015-04-29T13:02:58Z</time>
      </trkpt>
      <trkpt lat="43.43776" lon="5.71969">
        <ele>326.7</ele>
        <time>2015-04-29T13:03:12Z</time>
      </trkpt>
      <trkpt lat="43.43777" lon="5.71967">
        <ele>326.3</ele>
        <time>2015-04-29T13:03:13Z</time>
      </trkpt>
      <trkpt lat="43.43796" lon="5.71931">
        <ele>322.2</ele>
        <time>2015-04-29T13:03:45Z</time>
      </trkpt>
      <trkpt lat="43.43806" lon="5.71911">
        <ele>321.2</ele>
        <time>2015-04-29T13:04:00Z</time>
      </trkpt>
      <trkpt lat="43.43815" lon="5.71891">
        <ele>318.8</ele>
        <time>2015-04-29T13:04:15Z</time>
      </trkpt>
      <trkpt lat="43.43816" lon="5.71889">
        <ele>318.7</ele>
        <time>2015-04-29T13:04:16Z</time>
      </trkpt>
      <trkpt lat="43.43828" lon="5.71847">
        <ele>317.7</ele>
        <time>2015-04-29T13:04:41Z</time>
      </trkpt>
      <trkpt lat="43.43821" lon="5.71825">
        <ele>317.6</ele>
        <time>2015-04-29T13:05:00Z</time>
      </trkpt>
      <trkpt lat="43.43809" lon="5.71807">
        <ele>317.5</ele>
        <time>2015-04-29T13:05:16Z</time>
      </trkpt>
      <trkpt lat="43.43808" lon="5.71806">
        <ele>317.5</ele>
        <time>2015-04-29T13:05:17Z</time>
      </trkpt>
      <trkpt lat="43.43784" lon="5.71773">
        <ele>317.7</ele>
        <time>2015-04-29T13:05:46Z</time>
      </trkpt>
      <trkpt lat="43.43767" lon="5.71767">
        <ele>319.2</ele>
        <time>2015-04-29T13:06:02Z</time>
      </trkpt>
      <trkpt lat="43.4375" lon="5.71771">
        <ele>314.1</ele>
        <time>2015-04-29T13:06:18Z</time>
      </trkpt>
      <trkpt lat="43.4375" lon="5.71771">
        <ele>314.2</ele>
        <time>2015-04-29T13:06:19Z</time>
      </trkpt>
      <trkpt lat="43.43757" lon="5.71724">
        <ele>320.2</ele>
        <time>2015-04-29T13:07:15Z</time>
      </trkpt>
      <trkpt lat="43.43759" lon="5.71701">
        <ele>320.1</ele>
        <time>2015-04-29T13:07:39Z</time>
      </trkpt>
      <trkpt lat="43.4376" lon="5.717">
        <ele>320.5</ele>
        <time>2015-04-29T13:07:40Z</time>
      </trkpt>
      <trkpt lat="43.43773" lon="5.71657">
        <ele>328.8</ele>
        <time>2015-04-29T13:08:14Z</time>
      </trkpt>
      <trkpt lat="43.4378" lon="5.71635">
        <ele>333.1</ele>
        <time>2015-04-29T13:08:38Z</time>
      </trkpt>
      <trkpt lat="43.43785" lon="5.71613">
        <ele>330.5</ele>
        <time>2015-04-29T13:08:55Z</time>
      </trkpt>
      <trkpt lat="43.43785" lon="5.71611">
        <ele>330.6</ele>
        <time>2015-04-29T13:08:56Z</time>
      </trkpt>
      <trkpt lat="43.43795" lon="5.71566">
        <ele>330.2</ele>
        <time>2015-04-29T13:09:29Z</time>
      </trkpt>
      <trkpt lat="43.43799" lon="5.71542">
        <ele>332.7</ele>
        <time>2015-04-29T13:09:49Z</time>
      </trkpt>
      <trkpt lat="43.43805" lon="5.7152">
        <ele>329.3</ele>
        <time>2015-04-29T13:10:05Z</time>
      </trkpt>
      <trkpt lat="43.43806" lon="5.71519">
        <ele>329.3</ele>
        <time>2015-04-29T13:10:06Z</time>
      </trkpt>
      <trkpt lat="43.438" lon="5.71473">
        <ele>326.2</ele>
        <time>2015-04-29T13:10:38Z</time>
      </trkpt>
      <trkpt lat="43.43797" lon="5.7145">
        <ele>328.2</ele>
        <time>2015-04-29T13:10:54Z</time>
      </trkpt>
      <trkpt lat="43.43796" lon="5.71426">
        <ele>332.3</ele>
        <time>2015-04-29T13:11:08Z</time>
      </trkpt>
      <trkpt lat="43.43797" lon="5.71424">
        <ele>332.6</ele>
        <time>2015-04-29T13:11:09Z</time>
      </trkpt>
      <trkpt lat="43.438" lon="5.71378">
        <ele>332.8</ele>
        <time>2015-04-29T13:11:43Z</time>
      </trkpt>
      <trkpt lat="43.43805" lon="5.71354">
        <ele>326.7</ele>
        <time>2015-04-29T13:12:01Z</time>
      </trkpt>
      <trkpt lat="43.43808" lon="5.71331">
        <ele>337.6</ele>
        <time>2015-04-29T13:13:52Z</time>
      </trkpt>
      <trkpt lat="43.43809" lon="5.7133">
        <ele>337.2</ele>
        <time>2015-04-29T13:13:53Z</time>
      </trkpt>
      <trkpt lat="43.43828" lon="5.7129">
        <ele>324.5</ele>
        <time>2015-04-29T13:14:38Z</time>
      </trkpt>
      <trkpt lat="43.43841" lon="5.71274">
        <ele>321.3</ele>
        <time>2015-04-29T13:14:56Z</time>
      </trkpt>
      <trkpt lat="43.43842" lon="5.71273">
        <ele>321.2</ele>
        <time>2015-04-29T13:14:57Z</time>
      </trkpt>
      <trkpt lat="43.43812" lon="5.71258">
        <ele>323.8</ele>
        <time>2015-04-29T13:15:52Z</time>
      </trkpt>
      <trkpt lat="43.43795" lon="5.71257">
        <ele>323.2</ele>
        <time>2015-04-29T13:16:08Z</time>
      </trkpt>
      <trkpt lat="43.43794" lon="5.71256">
        <ele>323.2</ele>
        <time>2015-04-29T13:16:09Z</time>
      </trkpt>
      <trkpt lat="43.43779" lon="5.71218">
        <ele>325.3</ele>
        <time>2015-04-29T13:16:49Z</time>
      </trkpt>
      <trkpt lat="43.43766" lon="5.71202">
        <ele>327.7</ele>
        <time>2015-04-29T13:17:17Z</time>
      </trkpt>
      <trkpt lat="43.43765" lon="5.71202">
        <ele>327.7</ele>
        <time>2015-04-29T13:17:18Z</time>
      </trkpt>
      <trkpt lat="43.43737" lon="5.7118">
        <ele>330.7</ele>
        <time>2015-04-29T13:17:54Z</time>
      </trkpt>
      <trkpt lat="43.43737" lon="5.71156">
        <ele>331.2</ele>
        <time>2015-04-29T13:18:10Z</time>
      </trkpt>
      <trkpt lat="43.43741" lon="5.71134">
        <ele>332.7</ele>
        <time>2015-04-29T13:18:25Z</time>
      </trkpt>
      <trkpt lat="43.43742" lon="5.71132">
        <ele>333</ele>
        <time>2015-04-29T13:18:26Z</time>
      </trkpt>
      <trkpt lat="43.43751" lon="5.71088">
        <ele>334.7</ele>
        <time>2015-04-29T13:18:57Z</time>
      </trkpt>
      <trkpt lat="43.4375" lon="5.71064">
        <ele>334.8</ele>
        <time>2015-04-29T13:19:14Z</time>
      </trkpt>
      <trkpt lat="43.43737" lon="5.71049">
        <ele>339.7</ele>
        <time>2015-04-29T13:19:31Z</time>
      </trkpt>
      <trkpt lat="43.43735" lon="5.71049">
        <ele>340.1</ele>
        <time>2015-04-29T13:19:32Z</time>
      </trkpt>
      <trkpt lat="43.43702" lon="5.71054">
        <ele>344.2</ele>
        <time>2015-04-29T13:20:05Z</time>
      </trkpt>
      <trkpt lat="43.43685" lon="5.71051">
        <ele>345.1</ele>
        <time>2015-04-29T13:20:21Z</time>
      </trkpt>
      <trkpt lat="43.4367" lon="5.71039">
        <ele>345.3</ele>
        <time>2015-04-29T13:20:37Z</time>
      </trkpt>
      <trkpt lat="43.43669" lon="5.71038">
        <ele>345.5</ele>
        <time>2015-04-29T13:20:38Z</time>
      </trkpt>
      <trkpt lat="43.4364" lon="5.71014">
        <ele>347.2</ele>
        <time>2015-04-29T13:21:05Z</time>
      </trkpt>
      <trkpt lat="43.43624" lon="5.71008">
        <ele>344.3</ele>
        <time>2015-04-29T13:21:21Z</time>
      </trkpt>
      <trkpt lat="43.43608" lon="5.71021">
        <ele>345.6</ele>
        <time>2015-04-29T13:21:40Z</time>
      </trkpt>
      <trkpt lat="43.43607" lon="5.71022">
        <ele>346</ele>
        <time>2015-04-29T13:21:41Z</time>
      </trkpt>
      <trkpt lat="43.43586" lon="5.71058">
        <ele>343.5</ele>
        <time>2015-04-29T13:22:13Z</time>
      </trkpt>
      <trkpt lat="43.43576" lon="5.71077">
        <ele>347.1</ele>
        <time>2015-04-29T13:22:28Z</time>
      </trkpt>
      <trkpt lat="43.43568" lon="5.71099">
        <ele>351.7</ele>
        <time>2015-04-29T13:22:42Z</time>
      </trkpt>
      <trkpt lat="43.43568" lon="5.711">
        <ele>351.7</ele>
        <time>2015-04-29T13:22:43Z</time>
      </trkpt>
    </trkseg>
  </trk>
</gpx>